Flight Track Log - Related Links

Times and Time Zones

All times are in EST time to prevent confusion due to time zone crossing. See the CES2153 flight status page for this flight to view local times or setup timezone preferences in your user account.

Time Position Orientation Groundspeed Altitude Reporting Facility
EST Latitude Longitude Course Direction KTS MPH feet Rate Location/Type
Mon 09:50:00 PM 34.3698 109.1359 104° East  Level Estimated
Mon 09:51:00 PM 34.3681 109.1444 104° East  Level Estimated
Mon 09:52:00 PM 34.3664 109.1530 104° East  Level Estimated
Mon 09:53:00 PM 34.3646 109.1615 104° East  Level Estimated
Mon 09:54:00 PM 34.3629 109.1700 104° East  Level Estimated
Mon 09:55:00 PM 34.3612 109.1786 104° East  Level Estimated
Mon 09:56:00 PM 34.3595 109.1871 104° East  Level Estimated
Mon 09:57:00 PM 34.3577 109.1956 104° East  Level Estimated
Mon 09:58:00 PM 34.3560 109.2042 104° East  Level Estimated
Mon 09:59:00 PM 34.3542 109.2127 104° East  Level Estimated
Mon 10:00:00 PM 34.3525 109.2212 104° East  Level Estimated
Mon 10:01:00 PM 34.3508 109.2298 104° East  Level Estimated
Mon 10:02:00 PM 34.3490 109.2383 104° East  Level Estimated
Mon 10:03:00 PM 34.3473 109.2468 104° East  Level Estimated
Mon 10:04:00 PM 34.3455 109.2553 104° East  Level Estimated
Mon 10:05:00 PM 34.3438 109.2639 104° East  Level Estimated
Mon 10:06:00 PM 34.3421 109.2724 104° East  Level Estimated
Mon 10:07:00 PM 34.3403 109.2809 104° East  Level Estimated
Mon 10:08:00 PM 34.3386 109.2895 104° East  Level Estimated
Mon 10:09:00 PM 34.3368 109.2980 104° East  Level Estimated
Mon 10:10:00 PM 34.3351 109.3065 104° East  Level Estimated
Mon 10:11:00 PM 34.3334 109.3150 104° East  Level Estimated
Mon 10:12:00 PM 34.3316 109.3236 104° East  Level Estimated
Mon 10:13:00 PM 34.3299 109.3321 104° East  Level Estimated
Mon 10:14:00 PM 34.3281 109.3406 104° East  Level Estimated
Mon 10:15:00 PM 34.3264 109.3491 104° East  Level Estimated
Mon 10:16:00 PM 34.3246 109.3577 104° East  Level Estimated
Mon 10:17:00 PM 34.3229 109.3662 104° East  Level Estimated
Mon 10:18:00 PM 34.3211 109.3747 104° East  Level Estimated
Mon 10:19:00 PM 34.3194 109.3832 104° East  Level Estimated
Mon 10:20:00 PM 34.3176 109.3917 104° East  Level Estimated
Mon 10:21:00 PM 34.3159 109.4003 104° East  Level Estimated
Mon 10:22:00 PM 34.3141 109.4088 104° East  Level Estimated
Mon 10:23:00 PM 34.3124 109.4173 104° East  Level Estimated
Mon 10:24:00 PM 34.3106 109.4258 104° East  Level Estimated
Mon 10:25:00 PM 34.3089 109.4343 104° East  Level Estimated
Mon 10:26:00 PM 34.3071 109.4429 104° East  Level Estimated
Mon 10:27:00 PM 34.3054 109.4514 104° East  Level Estimated
Mon 10:28:00 PM 34.3036 109.4599 104° East  Level Estimated
Mon 10:29:00 PM 34.3019 109.4684 104° East  Level Estimated
Mon 10:30:00 PM 34.3001 109.4769 104° East  Level Estimated
Mon 10:31:00 PM 34.2984 109.4855 104° East  Level Estimated
Mon 10:32:00 PM 34.2966 109.4940 104° East  Level Estimated
Mon 10:33:00 PM 34.2949 109.5025 104° East  Level Estimated
Mon 10:34:00 PM 34.2931 109.5110 104° East  Level Estimated
Mon 10:35:00 PM 34.2914 109.5195 104° East  Level Estimated
Mon 10:36:00 PM 34.2896 109.5281 104° East  Level Estimated
Mon 10:37:00 PM 34.2878 109.5366 104° East  Level Estimated
Mon 10:38:00 PM 34.2861 109.5451 104° East  Level Estimated
Mon 10:38:48 PM 31.3684 121.0563 104° East 270 311 7,000  Level FlightAware ADS-B (ZSSS / SHA)
Mon 10:39:00 PM 34.2843 109.5536 104° East  Level Estimated
Mon 10:40:00 PM 34.2826 109.5621 104° East  Level Estimated
Mon 10:40:14 PM 31.3385 121.1546 110° East 230 265 6,400  Level FlightAware ADS-B (ZSSS / SHA)
Mon 10:40:34 PM 31.3318 121.1765 110° East 229 264 6,400  Level FlightAware ADS-B (ZSSS / SHA)
Mon 10:40:51 PM 31.3255 121.1974 110° East 229 264 6,400  Level FlightAware ADS-B (ZSSS / SHA)
Mon 10:41:14 PM 31.3109 121.2194 128° Southeast 228 262 6,400  Level FlightAware ADS-B (ZSSS / SHA)
Mon 10:41:34 PM 31.2896 121.2239 170° South 147 169 6,400  Level FlightAware ADS-B (ZSSS / SHA)
Mon 10:41:54 PM 31.2685 121.2240 180° South 290 334 6,400  Level FlightAware ADS-B (ZSSS / SHA)
Mon 10:42:14 PM 31.2475 121.2240 180° South 290 334 6,400  Level FlightAware ADS-B (ZSSS / SHA)
Mon 10:42:35 PM 31.2257 121.2247 179° South 232 267 6,400 -171 Level FlightAware ADS-B (ZSSS / SHA)
Mon 10:42:49 PM 31.2106 121.2254 178° South 224 258 6,300 -621 Descending FlightAware ADS-B (ZSSS / SHA)
Mon 10:43:04 PM 31.1945 121.2262 178° South 232 267 6,100 -1,167 Descending FlightAware ADS-B (ZSSS / SHA)
Mon 10:43:25 PM 31.1732 121.2329 165° South 227 261 5,600 -1,050 Descending FlightAware ADS-B (ZSSS / SHA)
Mon 10:43:44 PM 31.1615 121.2522 125° Southeast 223 257 5,400 -308 Descending FlightAware ADS-B (ZSSS / SHA)
Mon 10:44:04 PM 31.1543 121.2738 111° Southeast 230 265 5,400  Level FlightAware ADS-B (ZSSS / SHA)
Mon 10:44:24 PM 31.1469 121.2957 111° Southeast 246 283 5,400  Level FlightAware ADS-B (ZSSS / SHA)
Mon 10:44:44 PM 31.1397 121.3179 111° Southeast 233 268 5,400  Level FlightAware ADS-B (ZSSS / SHA)
Mon 10:45:04 PM 31.1329 121.3395 110° East 260 299 5,400  Level FlightAware ADS-B (ZSSS / SHA)
Mon 10:45:24 PM 31.1258 121.3612 111° Southeast 213 245 5,400  Level FlightAware ADS-B (ZSSS / SHA)
Mon 10:45:44 PM 31.1186 121.3829 111° Southeast 219 252 5,400  Level FlightAware ADS-B (ZSSS / SHA)
Mon 10:46:04 PM 31.1112 121.4050 111° Southeast 217 250 5,400  Level FlightAware ADS-B (ZSSS / SHA)
Mon 10:46:24 PM 31.1038 121.4271 111° Southeast 212 244 5,400  Level FlightAware ADS-B (ZSSS / SHA)
Mon 10:46:44 PM 31.0965 121.4489 112° Southeast 219 252 5,400  Level FlightAware ADS-B (ZSSS / SHA)
Mon 10:47:02 PM 31.0911 121.4653 111° Southeast 216 249 5,400  Level FlightAware ADS-B (ZSSS / SHA)
Mon 10:47:24 PM 31.0788 121.4872 123° Southeast 216 249 5,400  Level FlightAware ADS-B (ZSSS / SHA)
Mon 10:48:23 PM 31.0163 121.5026 168° South 211 243 5,400 -164 Level FlightAware ADS-B (ZSSS / SHA)
Mon 10:48:37 PM 31.0015 121.5050 172° South 256 295 5,200 -783 Descending FlightAware ADS-B (ZSSS / SHA)
Mon 10:48:46 PM 30.9945 121.5060 173° South 256 295 5,100 Descending FlightAware ADS-B (ZSSS / SHA)
Mon 10:51:00 PM 31.0077 121.4951 324° Northwest  Level Estimated
Mon 10:52:00 PM 31.0136 121.4901 324° Northwest  Level Estimated
Mon 10:53:00 PM 31.0195 121.4852 324° Northwest  Level Estimated
Mon 10:54:00 PM 31.0254 121.4803 324° Northwest  Level Estimated
Mon 10:55:00 PM 31.0313 121.4754 324° Northwest  Level Estimated
Mon 10:56:00 PM 31.0372 121.4705 324° Northwest  Level Estimated
Mon 10:57:00 PM 31.0431 121.4655 324° Northwest  Level Estimated
Mon 10:58:00 PM 31.0490 121.4606 324° Northwest  Level Estimated
Mon 10:59:00 PM 31.0549 121.4557 324° Northwest  Level Estimated
Mon 11:00:00 PM 31.0608 121.4508 324° Northwest  Level Estimated
Mon 11:01:00 PM 31.0667 121.4459 324° Northwest  Level Estimated
Mon 11:02:00 PM 31.0726 121.4409 324° Northwest  Level Estimated
Mon 11:03:00 PM 31.0785 121.4360 324° Northwest  Level Estimated
Mon 11:04:00 PM 31.0844 121.4311 324° Northwest  Level Estimated
Mon 11:05:00 PM 31.0903 121.4262 324° Northwest  Level Estimated
Mon 11:06:00 PM 31.0962 121.4213 324° Northwest  Level Estimated
Mon 11:07:00 PM 31.1021 121.4163 324° Northwest  Level Estimated
Mon 11:08:00 PM 31.1080 121.4114 324° Northwest  Level Estimated
Mon 11:09:00 PM 31.1139 121.4065 324° Northwest  Level Estimated
Mon 11:10:00 PM 31.1198 121.4016 324° Northwest  Level Estimated
Mon 11:11:00 PM 31.1257 121.3966 324° Northwest  Level Estimated
Mon 11:12:00 PM 31.1316 121.3917 324° Northwest  Level Estimated
Mon 11:13:00 PM 31.1375 121.3868 324° Northwest  Level Estimated
Mon 11:14:00 PM 31.1434 121.3819 324° Northwest  Level Estimated
Mon 11:15:00 PM 31.1493 121.3769 324° Northwest  Level Estimated
Mon 11:16:00 PM 31.1552 121.3720 324° Northwest  Level Estimated
Mon 11:17:00 PM 31.1611 121.3671 324° Northwest  Level Estimated
Mon 11:18:00 PM 31.1670 121.3621 324° Northwest  Level Estimated
Mon 11:19:00 PM 31.1729 121.3572 324° Northwest  Level Estimated
Mon 11:20:00 PM 31.1788 121.3523 324° Northwest  Level Estimated
Mon 11:21:00 PM 31.1847 121.3473 324° Northwest  Level Estimated
Mon 11:22:00 PM 31.1906 121.3424 324° Northwest  Level Estimated
Mon 11:23:00 PM 31.1965 121.3375 324° Northwest  Level Estimated
Mon 11:24:00 PM 31.1979 121.3363 325° Northwest  Level Estimated
Mon 11:25:00 PM 31.1979 121.3363 190° South  Level Estimated
Mon 11:26:00 PM 31.1979 121.3363 350° North  Level Estimated
Mon 11:27:00 PM 31.1979 121.3363 350° North  Level Estimated
Mon 11:28:00 PM 31.1979 121.3363 350° North  Level Estimated
Mon 11:29:00 PM 31.1979 121.3363 350° North  Level Estimated
Mon 11:30:00 PM 31.1979 121.3363 350° North  Level Estimated
Mon 11:31:00 PM 31.1979 121.3363 350° North  Level Estimated
Mon 11:32:00 PM 31.1979 121.3363 350° North  Level Estimated
Mon 11:33:00 PM 31.1979 121.3363 350° North  Level Estimated
Mon 11:34:00 PM 31.1979 121.3363 350° North  Level Estimated
Mon 11:35:00 PM 31.1979 121.3363 350° North  Level Estimated
Mon 11:36:00 PM 31.1979 121.3363 350° North  Level Estimated
Mon 11:37:00 PM 31.1979 121.3363 350° North  Level Estimated
Mon 11:38:00 PM 31.1979 121.3363 350° North  Level Estimated
Mon 11:39:00 PM 31.1979 121.3363 350° North  Level Estimated
Mon 11:40:00 PM 31.1979 121.3363 350° North  Level Estimated
Mon 11:41:00 PM 31.1979 121.3363 350° North  Level Estimated
Mon 11:42:00 PM 31.1979 121.3363 350° North  Level Estimated
Mon 11:43:00 PM 31.1979 121.3363 350° North  Level Estimated
Mon 11:44:00 PM 31.1979 121.3363 350° North  Level Estimated
Mon 11:45:00 PM 31.1979 121.3363 350° North  Level Estimated
Mon 11:46:00 PM 31.1979 121.3363 350° North  Level Estimated
Mon 11:47:00 PM 31.1979 121.3363 350° North  Level Estimated
Mon 11:48:00 PM 31.1979 121.3363 350° North  Level Estimated
Mon 11:49:00 PM 31.1979 121.3363 350° North  Level Estimated
Mon 11:50:00 PM 31.1979 121.3363 350° North  Level Estimated
Mon 11:51:00 PM 31.1979 121.3363 350° North  Level Estimated
Mon 11:52:00 PM 31.1979 121.3363 350° North  Level Estimated
Mon 11:53:00 PM 31.1979 121.3363 350° North  Level Estimated
Mon 11:54:00 PM 31.1979 121.3363 350° North  Level Estimated
Mon 11:55:00 PM 31.1979 121.3363 350° North  Level Estimated
Mon 11:56:00 PM 31.1979 121.3363 350° North  Level Estimated
Mon 11:57:00 PM 31.1979 121.3363 350° North  Level Estimated
Mon 11:58:00 PM 31.1979 121.3363 350° North  Level Estimated
Mon 11:59:00 PM 31.1979 121.3363 350° North  Level Estimated
Tue 12:00:00 AM 31.1979 121.3363 350° North  Level Estimated
Tue 12:01:00 AM 31.1979 121.3363 350° North  Level Estimated
Tue 12:02:00 AM 31.1979 121.3363 350° North  Level Estimated
Tue 12:03:00 AM 31.1979 121.3363 350° North  Level Estimated
Tue 12:04:00 AM 31.1979 121.3363 350° North  Level Estimated
Tue 12:05:00 AM 31.1979 121.3363 350° North  Level Estimated
Tue 12:06:00 AM 31.1979 121.3363 350° North  Level Estimated
Tue 12:07:00 AM 31.1979 121.3363 350° North  Level Estimated
Tue 12:08:00 AM 31.1979 121.3363 350° North  Level Estimated
Tue 12:09:00 AM 31.1979 121.3363 350° North  Level Estimated
Tue 12:10:00 AM 31.1979 121.3363 350° North  Level Estimated
Tue 12:11:00 AM 31.1979 121.3363 350° North  Level Estimated
Tue 12:12:00 AM 31.1979 121.3363 350° North  Level Estimated
Tue 12:13:00 AM 31.1979 121.3363 350° North  Level Estimated
Tue 12:14:00 AM 31.1979 121.3363 350° North  Level Estimated
Tue 12:15:00 AM 31.1979 121.3363 350° North  Level Estimated
Tue 12:16:00 AM 31.1979 121.3363 350° North  Level Estimated
Tue 12:17:00 AM 31.1979 121.3363 350° North  Level Estimated
Tue 12:18:00 AM 31.1979 121.3363 350° North  Level Estimated
Tue 12:19:00 AM 31.1979 121.3363 350° North  Level Estimated
Tue 12:20:00 AM 31.1979 121.3363 350° North  Level Estimated
Tue 12:21:00 AM 31.1979 121.3363 350° North  Level Estimated
Tue 12:22:00 AM 31.1979 121.3363 350° North  Level Estimated
Tue 12:23:00 AM 31.1979 121.3363 350° North  Level Estimated
Tue 12:24:00 AM 31.1979 121.3363 350° North  Level Estimated
Tue 12:25:00 AM 31.1979 121.3363 350° North  Level Estimated
Tue 12:26:00 AM 31.1979 121.3363 350° North  Level Estimated
Tue 12:27:00 AM 31.1979 121.3363 350° North  Level Estimated
Tue 12:28:00 AM 31.1979 121.3363 350° North  Level Estimated
Tue 12:29:00 AM 31.1979 121.3363 350° North  Level Estimated
Tue 12:30:00 AM 31.1979 121.3363 350° North  Level Estimated
Tue 12:31:00 AM 31.1979 121.3363 350° North  Level Estimated
Tue 12:32:00 AM 31.1979 121.3363 350° North  Level Estimated
Tue 12:33:00 AM 31.1979 121.3363 350° North  Level Estimated
Tue 12:34:00 AM 31.1979 121.3363 350° North  Level Estimated
Tue 12:35:00 AM 31.1979 121.3363 350° North  Level Estimated
Tue 12:36:00 AM 31.1979 121.3363 350° North  Level Estimated
Tue 12:37:00 AM 31.1979 121.3363 350° North  Level Estimated
Tue 12:38:00 AM 31.1979 121.3363 350° North  Level Estimated
Tue 12:39:00 AM 31.1979 121.3363 350° North  Level Estimated
Tue 12:40:00 AM 31.1979 121.3363 350° North  Level Estimated
Tue 12:41:00 AM 31.1979 121.3363 350° North  Level Estimated
Tue 12:42:00 AM 31.1979 121.3363 350° North  Level Estimated
Tue 12:43:00 AM 31.1979 121.3363 350° North  Level Estimated
Tue 12:44:00 AM 31.1979 121.3363 350° North  Level Estimated
Tue 12:45:00 AM 31.1979 121.3363 350° North  Level Estimated
Tue 12:46:00 AM 31.1979 121.3363 350° North  Level Estimated
Tue 12:47:00 AM 31.1979 121.3363 350° North  Level Estimated
Tue 12:48:00 AM 31.1979 121.3363 350° North  Level Estimated
Tue 12:49:00 AM 31.1979 121.3363 350° North  Level Estimated
Tue 12:50:00 AM 31.1979 121.3363 350° North  Level Estimated
Tue 12:51:00 AM 31.1979 121.3363 350° North  Level Estimated
Tue 12:52:00 AM 31.1979 121.3363 350° North  Level Estimated
Tue 12:53:00 AM 31.1979 121.3363 350° North  Level Estimated
Tue 12:54:00 AM 31.1979 121.3363 350° North  Level Estimated
Tue 12:55:00 AM 31.1979 121.3363 350° North  Level Estimated
Tue 12:56:00 AM 31.1979 121.3363 350° North  Level Estimated
Tue 12:57:00 AM 31.1979 121.3363 350° North  Level Estimated
Tue 12:58:00 AM 31.1979 121.3363 350° North  Level Estimated
Tue 12:59:00 AM 31.1979 121.3363 350° North  Level Estimated
Tue 01:00:00 AM 31.1979 121.3363 350° North  Level Estimated
Tue 01:01:00 AM 31.1979 121.3363 350° North  Level Estimated
Tue 01:02:00 AM 31.1979 121.3363 350° North  Level Estimated
Tue 01:03:00 AM 31.1979 121.3363 350° North  Level Estimated
Tue 01:04:00 AM 31.1979 121.3363 350° North  Level Estimated
Tue 01:05:00 AM 31.1979 121.3363 350° North  Level Estimated
Tue 01:06:00 AM 31.1979 121.3363 350° North  Level Estimated
Tue 01:07:00 AM 31.1979 121.3363 350° North  Level Estimated
Tue 01:08:00 AM 31.1979 121.3363 350° North  Level Estimated
Tue 01:09:00 AM 31.1979 121.3363 350° North  Level Estimated
Tue 01:10:00 AM 31.1979 121.3363 350° North  Level Estimated
Tue 01:11:00 AM 31.1979 121.3363 350° North  Level Estimated
Tue 01:12:00 AM 31.1979 121.3363 350° North  Level Estimated
Tue 01:13:00 AM 31.1979 121.3363 350° North  Level Estimated
Tue 01:14:00 AM 31.1979 121.3363 350° North  Level Estimated
Tue 01:15:00 AM 31.1979 121.3363 350° North  Level Estimated
Tue 01:16:00 AM 31.1979 121.3363 350° North  Level Estimated
Tue 01:17:00 AM 31.1979 121.3363 350° North  Level Estimated
Tue 01:18:00 AM 31.1979 121.3363 350° North  Level Estimated
Tue 01:19:00 AM 31.1979 121.3363 350° North  Level Estimated
Tue 01:20:00 AM 31.1979 121.3363 350° North  Level Estimated
Tue 01:21:00 AM 31.1979 121.3363 350° North  Level Estimated
Tue 01:22:00 AM 31.1979 121.3363 350° North  Level Estimated
Tue 01:23:00 AM 31.1979 121.3363 350° North  Level Estimated
Tue 01:24:00 AM 31.1979 121.3363 350° North  Level Estimated
Tue 01:25:00 AM 31.1979 121.3363 350° North  Level Estimated
Tue 01:26:00 AM 31.1979 121.3363 350° North  Level Estimated
Tue 01:27:00 AM 31.1979 121.3363 350° North  Level Estimated
Tue 01:28:00 AM 31.1979 121.3363 350° North  Level Estimated
Tue 01:29:00 AM 31.1979 121.3363 350° North  Level Estimated
Tue 01:30:00 AM 31.1979 121.3363 350° North  Level Estimated
Tue 01:31:00 AM 31.1979 121.3363 350° North  Level Estimated
Tue 01:32:00 AM 31.1979 121.3363 350° North  Level Estimated
Tue 01:33:00 AM 31.1979 121.3363 350° North  Level Estimated
Tue 01:34:00 AM 31.1979 121.3363 350° North  Level Estimated
Tue 01:35:00 AM 31.1979 121.3363 350° North  Level Estimated
Tue 01:36:00 AM 31.1979 121.3363 350° North  Level Estimated
Tue 01:37:00 AM 31.1979 121.3363 350° North  Level Estimated
Tue 01:38:00 AM 31.1979 121.3363 350° North  Level Estimated
Tue 01:39:00 AM 31.1979 121.3363 350° North  Level Estimated
Tue 01:40:00 AM 31.1979 121.3363 350° North  Level Estimated
Tue 01:41:00 AM 31.1979 121.3363 350° North  Level Estimated
Tue 01:42:00 AM 31.1979 121.3363 350° North  Level Estimated
Tue 01:43:00 AM 31.1979 121.3363 350° North  Level Estimated
Tue 01:44:00 AM 31.1979 121.3363 350° North  Level Estimated
Tue 01:45:00 AM 31.1979 121.3363 350° North  Level Estimated
Tue 01:46:00 AM 31.1979 121.3363 350° North  Level Estimated
Tue 01:47:00 AM 31.1979 121.3363 350° North  Level Estimated
Tue 01:48:00 AM 31.1979 121.3363 350° North  Level Estimated
Tue 01:49:00 AM 31.1979 121.3363 350° North  Level Estimated
Tue 01:50:00 AM 31.1979 121.3363 350° North  Level Estimated
Tue 01:51:00 AM 31.1979 121.3363 350° North  Level Estimated
Tue 01:52:00 AM 31.1979 121.3363 350° North  Level Estimated
Tue 01:53:00 AM 31.1979 121.3363 350° North  Level Estimated
Tue 01:54:00 AM 31.1979 121.3363 350° North  Level Estimated
Tue 01:55:00 AM 31.1979 121.3363 350° North  Level Estimated
Tue 01:56:00 AM 31.1979 121.3363 350° North  Level Estimated
Tue 01:57:00 AM 31.1979 121.3363 350° North  Level Estimated
Tue 01:58:00 AM 31.1979 121.3363 350° North  Level Estimated
Tue 01:59:00 AM 31.1979 121.3363 350° North  Level Estimated
Tue 02:00:00 AM 31.1979 121.3363 350° North  Level Estimated
Tue 02:01:00 AM 31.1979 121.3363 350° North  Level Estimated
Tue 02:02:00 AM 31.1979 121.3363 350° North  Level Estimated
Tue 02:03:00 AM 31.1979 121.3363 350° North  Level Estimated
Tue 02:04:00 AM 31.1979 121.3363 350° North  Level Estimated
Tue 02:05:00 AM 31.1979 121.3363 350° North  Level Estimated
Tue 02:06:00 AM 31.1979 121.3363 350° North  Level Estimated
Tue 02:07:00 AM 31.1979 121.3363 350° North  Level Estimated
Tue 02:08:00 AM 31.1979 121.3363 350° North  Level Estimated
Tue 02:09:00 AM 31.1979 121.3363 350° North  Level Estimated
Tue 02:10:00 AM 31.1979 121.3363 350° North  Level Estimated
Tue 02:11:00 AM 31.1979 121.3363 350° North  Level Estimated
Tue 02:12:00 AM 31.1979 121.3363 350° North  Level Estimated
Tue 02:13:00 AM 31.1979 121.3363 350° North  Level Estimated
Tue 02:14:00 AM 31.1979 121.3363 350° North  Level Estimated
Tue 02:15:00 AM 31.1979 121.3363 350° North  Level Estimated
Tue 02:16:00 AM 31.1979 121.3363 350° North  Level Estimated
Tue 02:17:00 AM 31.1979 121.3363 350° North  Level Estimated
Tue 02:18:00 AM 31.1979 121.3363 350° North  Level Estimated
Tue 02:19:00 AM 31.1979 121.3363 350° North  Level Estimated
Tue 02:20:00 AM 31.1979 121.3363 350° North  Level Estimated
Tue 02:21:00 AM 31.1979 121.3363 350° North  Level Estimated
Tue 02:22:00 AM 31.1979 121.3363 350° North  Level Estimated
Tue 02:23:00 AM 31.1979 121.3363 350° North  Level Estimated
Tue 02:24:00 AM 31.1979 121.3363 350° North  Level Estimated
Tue 02:25:00 AM 31.1979 121.3363 350° North  Level Estimated
Tue 02:26:00 AM 31.1979 121.3363 350° North  Level Estimated
Tue 02:27:00 AM 31.1979 121.3363 350° North  Level Estimated
Tue 02:28:00 AM 31.1979 121.3363 350° North  Level Estimated
Tue 02:29:00 AM 31.1979 121.3363 350° North  Level Estimated
Tue 02:30:00 AM 31.1979 121.3363 350° North  Level Estimated
Tue 02:31:00 AM 31.1979 121.3363 350° North  Level Estimated
Tue 02:32:00 AM 31.1979 121.3363 350° North  Level Estimated
Tue 02:33:00 AM 31.1979 121.3363 350° North  Level Estimated
Tue 02:34:00 AM 31.1979 121.3363 350° North  Level Estimated
Tue 02:35:00 AM 31.1979 121.3363 350° North  Level Estimated
Tue 02:36:00 AM 31.1979 121.3363 350° North  Level Estimated
Tue 02:37:00 AM 31.1979 121.3363 350° North  Level Estimated
Tue 02:38:00 AM 31.1979 121.3363 350° North  Level Estimated
Tue 02:39:00 AM 31.1979 121.3363 350° North  Level Estimated
Tue 02:40:00 AM 31.1979 121.3363 350° North  Level Estimated
Tue 02:41:00 AM 31.1979 121.3363 350° North  Level Estimated
Tue 02:42:00 AM 31.1979 121.3363 350° North  Level Estimated
Tue 02:43:00 AM 31.1979 121.3363 350° North  Level Estimated
Tue 02:44:00 AM 31.1979 121.3363 350° North  Level Estimated
Tue 02:45:00 AM 31.1979 121.3363 350° North  Level Estimated
Tue 02:46:00 AM 31.1979 121.3363 350° North  Level Estimated
Tue 02:47:00 AM 31.1979 121.3363 350° North  Level Estimated
Tue 02:48:00 AM 31.1979 121.3363 350° North  Level Estimated
Tue 02:49:00 AM 31.1979 121.3363 350° North  Level Estimated
Tue 02:50:00 AM 31.1979 121.3363 350° North  Level Estimated
Tue 02:51:00 AM 31.1979 121.3363 350° North  Level Estimated
Tue 02:52:00 AM 31.1979 121.3363 350° North  Level Estimated
Tue 02:53:00 AM 31.1979 121.3363 350° North  Level Estimated
Tue 02:54:00 AM 31.1979 121.3363 350° North  Level Estimated
Tue 02:55:00 AM 31.1979 121.3363 350° North  Level Estimated
Tue 02:56:00 AM 31.1979 121.3363 350° North  Level Estimated
Tue 02:57:00 AM 31.1979 121.3363 350° North  Level Estimated
Tue 02:58:00 AM 31.1979 121.3363 350° North  Level Estimated
Tue 02:59:00 AM 31.1979 121.3363 350° North  Level Estimated
Tue 03:00:00 AM 31.1979 121.3363 350° North  Level Estimated
Tue 03:01:00 AM 31.1979 121.3363 350° North  Level Estimated
Tue 03:02:00 AM 31.1979 121.3363 350° North  Level Estimated
Tue 03:03:00 AM 31.1979 121.3363 350° North  Level Estimated
Tue 03:04:00 AM 31.1979 121.3363 350° North  Level Estimated
Tue 03:05:00 AM 31.1979 121.3363 350° North  Level Estimated
Tue 03:06:00 AM 31.1979 121.3363 350° North  Level Estimated
Tue 03:07:00 AM 31.1979 121.3363 350° North  Level Estimated
Tue 03:08:00 AM 31.1979 121.3363 350° North  Level Estimated
Tue 03:09:00 AM 31.1979 121.3363 350° North  Level Estimated
Tue 03:10:00 AM 31.1979 121.3363 350° North  Level Estimated
Tue 03:11:00 AM 31.1979 121.3363 350° North  Level Estimated
Tue 03:12:00 AM 31.1979 121.3363 350° North  Level Estimated
Tue 03:13:00 AM 31.1979 121.3363 350° North  Level Estimated
Tue 03:14:00 AM 31.1979 121.3363 350° North  Level Estimated
Tue 03:15:00 AM 31.1979 121.3363 350° North  Level Estimated
Tue 03:16:00 AM 31.1979 121.3363 350° North  Level Estimated
Tue 03:17:00 AM 31.1979 121.3363 350° North  Level Estimated
Tue 03:18:00 AM 31.1979 121.3363 350° North  Level Estimated
Tue 03:19:00 AM 31.1979 121.3363 350° North  Level Estimated
Tue 03:20:00 AM 31.1979 121.3363 350° North  Level Estimated
Tue 03:21:00 AM 31.1979 121.3363 350° North  Level Estimated
Tue 03:22:00 AM 31.1979 121.3363 350° North  Level Estimated
Tue 03:23:00 AM 31.1979 121.3363 350° North  Level Estimated
Tue 03:24:00 AM 31.1979 121.3363 350° North  Level Estimated
Tue 03:25:00 AM 31.1979 121.3363 350° North  Level Estimated
Tue 03:26:00 AM 31.1979 121.3363 350° North  Level Estimated
Tue 03:27:00 AM 31.1979 121.3363 350° North  Level Estimated
Tue 03:28:00 AM 31.1979 121.3363 350° North  Level Estimated
Tue 03:29:00 AM 31.1979 121.3363 350° North  Level Estimated
Tue 03:30:00 AM 31.1979 121.3363 350° North  Level Estimated
Tue 03:31:00 AM 31.1979 121.3363 350° North  Level Estimated
Tue 03:32:00 AM 31.1979 121.3363 350° North  Level Estimated
Tue 03:33:00 AM 31.1979 121.3363 350° North  Level Estimated
Tue 03:34:00 AM 31.1979 121.3363 350° North  Level Estimated
Tue 03:35:00 AM 31.1979 121.3363 350° North  Level Estimated
Tue 03:36:00 AM 31.1979 121.3363 350° North  Level Estimated
Tue 03:37:00 AM 31.1979 121.3363 350° North  Level Estimated
Tue 03:38:00 AM 31.1979 121.3363 350° North  Level Estimated
Tue 03:39:00 AM 31.1979 121.3363 350° North  Level Estimated
Tue 03:40:00 AM 31.1979 121.3363 350° North  Level Estimated
Tue 03:41:00 AM 31.1979 121.3363 350° North  Level Estimated
Tue 03:42:00 AM 31.1979 121.3363 350° North  Level Estimated
Tue 03:43:00 AM 31.1979 121.3363 350° North  Level Estimated
Tue 03:44:00 AM 31.1979 121.3363 350° North  Level Estimated
Tue 03:45:00 AM 31.1979 121.3363 350° North  Level Estimated
Tue 03:46:00 AM 31.1979 121.3363 350° North  Level Estimated
Tue 03:47:00 AM 31.1979 121.3363 350° North  Level Estimated
Tue 03:48:00 AM 31.1979 121.3363 350° North  Level Estimated
Tue 03:49:00 AM 31.1979 121.3363 350° North  Level Estimated
Tue 03:50:00 AM 31.1979 121.3363 350° North  Level Estimated
Tue 03:51:00 AM 31.1979 121.3363 350° North  Level Estimated
Tue 03:52:00 AM 31.1979 121.3363 350° North  Level Estimated
Tue 03:53:00 AM 31.1979 121.3363 350° North  Level Estimated
Tue 03:54:00 AM 31.1979 121.3363 350° North  Level Estimated
Tue 03:55:00 AM 31.1979 121.3363 350° North  Level Estimated
Tue 03:56:00 AM 31.1979 121.3363 350° North  Level Estimated
Tue 03:57:00 AM 31.1979 121.3363 350° North  Level Estimated
Tue 03:58:00 AM 31.1979 121.3363 350° North  Level Estimated
Tue 03:59:00 AM 31.1979 121.3363 350° North  Level Estimated
Tue 04:00:00 AM 31.1979 121.3363 350° North  Level Estimated
Tue 04:01:00 AM 31.1979 121.3363 350° North  Level Estimated
Tue 04:02:00 AM 31.1979 121.3363 350° North  Level Estimated
Tue 04:03:00 AM 31.1979 121.3363 350° North  Level Estimated
Tue 04:04:00 AM 31.1979 121.3363 350° North  Level Estimated
Tue 04:05:00 AM 31.1979 121.3363 350° North  Level Estimated
Tue 04:06:00 AM 31.1979 121.3363 350° North  Level Estimated
Tue 04:07:00 AM 31.1979 121.3363 350° North  Level Estimated
Tue 04:08:00 AM 31.1979 121.3363 350° North  Level Estimated
Tue 04:09:00 AM 31.1979 121.3363 350° North  Level Estimated
Tue 04:10:00 AM 31.1979 121.3363 350° North  Level Estimated
Tue 04:11:00 AM 31.1979 121.3363 350° North  Level Estimated
Tue 04:12:00 AM 31.1979 121.3363 350° North  Level Estimated
Tue 04:13:00 AM 31.1979 121.3363 350° North  Level Estimated
Tue 04:14:00 AM 31.1979 121.3363 350° North  Level Estimated
Tue 04:15:00 AM 31.1979 121.3363 350° North  Level Estimated
Tue 04:16:00 AM 31.1979 121.3363 350° North  Level Estimated
Tue 04:17:00 AM 31.1979 121.3363 350° North  Level Estimated
Tue 04:18:00 AM 31.1979 121.3363 350° North  Level Estimated
Tue 04:19:00 AM 31.1979 121.3363 350° North  Level Estimated
Tue 04:20:00 AM 31.1979 121.3363 350° North  Level Estimated
Tue 04:21:00 AM 31.1979 121.3363 350° North  Level Estimated
Tue 04:22:00 AM 31.1979 121.3363 350° North  Level Estimated
Tue 04:23:00 AM 31.1979 121.3363 350° North  Level Estimated
Tue 04:24:00 AM 31.1979 121.3363 350° North  Level Estimated
Tue 04:25:00 AM 31.1979 121.3363 350° North  Level Estimated
Tue 04:26:00 AM 31.1979 121.3363 350° North  Level Estimated
Tue 04:27:00 AM 31.1979 121.3363 350° North  Level Estimated
Tue 04:28:00 AM 31.1979 121.3363 350° North  Level Estimated
Tue 04:29:00 AM 31.1979 121.3363 350° North  Level Estimated
Tue 04:30:00 AM 31.1979 121.3363 350° North  Level Estimated
Tue 04:31:00 AM 31.1979 121.3363 350° North  Level Estimated
Tue 04:32:00 AM 31.1979 121.3363 350° North  Level Estimated
Tue 04:33:00 AM 31.1979 121.3363 350° North  Level Estimated
Tue 04:34:00 AM 31.1979 121.3363 350° North  Level Estimated
Tue 04:35:00 AM 31.1979 121.3363 350° North  Level Estimated
Tue 04:36:00 AM 31.1979 121.3363 350° North  Level Estimated
Tue 04:37:00 AM 31.1979 121.3363 350° North  Level Estimated
Tue 04:38:00 AM 31.1979 121.3363 350° North  Level Estimated
Tue 04:39:00 AM 31.1979 121.3363 350° North  Level Estimated
Tue 04:40:00 AM 31.1979 121.3363 350° North  Level Estimated
Tue 04:41:00 AM 31.1979 121.3363 350° North  Level Estimated
Tue 04:42:00 AM 31.1979 121.3363 350° North  Level Estimated
Tue 04:43:00 AM 31.1979 121.3363 350° North  Level Estimated
Tue 04:44:00 AM 31.1979 121.3363 350° North  Level Estimated
Tue 04:45:00 AM 31.1979 121.3363 350° North  Level Estimated
Tue 04:46:00 AM 31.1979 121.3363 350° North  Level Estimated
Tue 04:47:00 AM 31.1979 121.3363 350° North  Level Estimated
Tue 04:48:00 AM 31.1979 121.3363 350° North  Level Estimated
Tue 04:49:00 AM 31.1979 121.3363 350° North  Level Estimated
Tue 04:50:00 AM 31.1979 121.3363 350° North  Level Estimated
Tue 04:51:00 AM 31.1979 121.3363 350° North  Level Estimated
Tue 04:52:00 AM 31.1979 121.3363 350° North  Level Estimated
Tue 04:53:00 AM 31.1979 121.3363 350° North  Level Estimated
Tue 04:54:00 AM 31.1979 121.3363 350° North  Level Estimated
Tue 04:55:00 AM 31.1979 121.3363 350° North  Level Estimated
Tue 04:56:00 AM 31.1979 121.3363 350° North  Level Estimated
Tue 04:57:00 AM 31.1979 121.3363 350° North  Level Estimated
Tue 04:58:00 AM 31.1979 121.3363 350° North  Level Estimated
Tue 04:59:00 AM 31.1979 121.3363 350° North  Level Estimated
Tue 05:00:00 AM 31.1979 121.3363 350° North  Level Estimated
Tue 05:01:00 AM 31.1979 121.3363 350° North  Level Estimated
Tue 05:02:00 AM 31.1979 121.3363 350° North  Level Estimated
Tue 05:03:00 AM 31.1979 121.3363 350° North  Level Estimated
Tue 05:04:00 AM 31.1979 121.3363 350° North  Level Estimated
Tue 05:05:00 AM 31.1979 121.3363 350° North  Level Estimated
Tue 05:06:00 AM 31.1979 121.3363 350° North  Level Estimated
Tue 05:07:00 AM 31.1979 121.3363 350° North  Level Estimated
Tue 05:08:00 AM 31.1979 121.3363 350° North  Level Estimated
Tue 05:09:00 AM 31.1979 121.3363 350° North  Level Estimated
Tue 05:10:00 AM 31.1979 121.3363 350° North  Level Estimated
Tue 05:11:00 AM 31.1979 121.3363 350° North  Level Estimated
Tue 05:12:00 AM 31.1979 121.3363 350° North  Level Estimated
Tue 05:13:00 AM 31.1979 121.3363 350° North  Level Estimated
Tue 05:14:00 AM 31.1979 121.3363 350° North  Level Estimated
Tue 05:15:00 AM 31.1979 121.3363 350° North  Level Estimated
Tue 05:16:00 AM 31.1979 121.3363 350° North  Level Estimated
Tue 05:17:00 AM 31.1979 121.3363 350° North  Level Estimated
Tue 05:18:00 AM 31.1979 121.3363 350° North  Level Estimated
Tue 05:19:00 AM 31.1979 121.3363 350° North  Level Estimated
Tue 05:20:00 AM 31.1979 121.3363 350° North  Level Estimated
Tue 05:21:00 AM 31.1979 121.3363 350° North  Level Estimated
Tue 05:22:00 AM 31.1979 121.3363 350° North  Level Estimated
Tue 05:23:00 AM 31.1979 121.3363 350° North  Level Estimated
Tue 05:24:00 AM 31.1979 121.3363 350° North  Level Estimated
Tue 05:25:00 AM 31.1979 121.3363 350° North  Level Estimated
Tue 05:26:00 AM 31.1979 121.3363 350° North  Level Estimated
Tue 05:27:00 AM 31.1979 121.3363 350° North  Level Estimated
Tue 05:28:00 AM 31.1979 121.3363 350° North  Level Estimated
Tue 05:29:00 AM 31.1979 121.3363 350° North  Level Estimated
Tue 05:30:00 AM 31.1979 121.3363 350° North  Level Estimated
Tue 05:31:00 AM 31.1979 121.3363 350° North  Level Estimated
Tue 05:32:00 AM 31.1979 121.3363 350° North  Level Estimated
Tue 05:33:00 AM 31.1979 121.3363 350° North  Level Estimated
Tue 05:34:00 AM 31.1979 121.3363 350° North  Level Estimated
Tue 05:35:00 AM 31.1979 121.3363 350° North  Level Estimated
Tue 05:36:00 AM 31.1979 121.3363 350° North  Level Estimated
Tue 05:37:00 AM 31.1979 121.3363 350° North  Level Estimated
Tue 05:38:00 AM 31.1979 121.3363 350° North  Level Estimated
Tue 05:39:00 AM 31.1979 121.3363 350° North  Level Estimated
Tue 05:40:00 AM 31.1979 121.3363 350° North  Level Estimated
Tue 05:41:00 AM 31.1979 121.3363 350° North  Level Estimated
Tue 05:42:00 AM 31.1979 121.3363 350° North  Level Estimated
Tue 05:43:00 AM 31.1979 121.3363 350° North  Level Estimated
Tue 05:44:00 AM 31.1979 121.3363 350° North  Level Estimated
Tue 05:45:00 AM 31.1979 121.3363 350° North  Level Estimated
Tue 05:46:00 AM 31.1979 121.3363 350° North  Level Estimated
Tue 05:47:00 AM 31.1979 121.3363 350° North  Level Estimated
Tue 05:48:00 AM 31.1979 121.3363 350° North  Level Estimated
Tue 05:49:00 AM 31.1979 121.3363 350° North  Level Estimated
Tue 05:50:00 AM 31.1979 121.3363 350° North  Level Estimated
Tue 05:51:00 AM 31.1979 121.3363 350° North  Level Estimated
Tue 05:52:00 AM 31.1979 121.3363 350° North  Level Estimated
Tue 05:53:00 AM 31.1979 121.3363 350° North  Level Estimated
Tue 05:54:00 AM 31.1979 121.3363 350° North  Level Estimated
Tue 05:55:00 AM 31.1979 121.3363 350° North  Level Estimated
Tue 05:56:00 AM 31.1979 121.3363 350° North  Level Estimated
Tue 05:57:00 AM 31.1979 121.3363 350° North  Level Estimated
Tue 05:58:00 AM 31.1979 121.3363 350° North  Level Estimated
Tue 05:59:00 AM 31.1979 121.3363 350° North  Level Estimated
Tue 06:00:00 AM 31.1979 121.3363 350° North  Level Estimated
Tue 06:01:00 AM 31.1979 121.3363 350° North  Level Estimated
Tue 06:02:00 AM 31.1979 121.3363 350° North  Level Estimated
Tue 06:03:00 AM 31.1979 121.3363 350° North  Level Estimated
Tue 06:04:00 AM 31.1979 121.3363 350° North  Level Estimated
Tue 06:05:00 AM 31.1979 121.3363 350° North  Level Estimated
Tue 06:06:00 AM 31.1979 121.3363 350° North  Level Estimated
Tue 06:07:00 AM 31.1979 121.3363 350° North  Level Estimated
Tue 06:08:00 AM 31.1979 121.3363 350° North  Level Estimated
Tue 06:09:00 AM 31.1979 121.3363 350° North  Level Estimated
Tue 06:10:00 AM 31.1979 121.3363 350° North  Level Estimated
Tue 06:11:00 AM 31.1979 121.3363 350° North  Level Estimated
Tue 06:12:00 AM 31.1979 121.3363 350° North  Level Estimated
Tue 06:13:00 AM 31.1979 121.3363 350° North  Level Estimated
Tue 06:14:00 AM 31.1979 121.3363 350° North  Level Estimated
Tue 06:15:00 AM 31.1979 121.3363 350° North  Level Estimated
Tue 06:16:00 AM 31.1979 121.3363 350° North  Level Estimated
Tue 06:17:00 AM 31.1979 121.3363 350° North  Level Estimated
Tue 06:18:00 AM 31.1979 121.3363 350° North  Level Estimated
Tue 06:19:00 AM 31.1979 121.3363 350° North  Level Estimated
Tue 06:20:00 AM 31.1979 121.3363 350° North  Level Estimated
Tue 06:21:00 AM 31.1979 121.3363 350° North  Level Estimated
Tue 06:22:00 AM 31.1979 121.3363 350° North  Level Estimated
Tue 06:23:00 AM 31.1979 121.3363 350° North  Level Estimated
Tue 06:24:00 AM 31.1979 121.3363 350° North  Level Estimated
Tue 06:25:00 AM 31.1979 121.3363 350° North  Level Estimated
Tue 06:26:00 AM 31.1979 121.3363 350° North  Level Estimated
Tue 06:27:00 AM 31.1979 121.3363 350° North  Level Estimated
Tue 06:28:00 AM 31.1979 121.3363 350° North  Level Estimated
Tue 06:29:00 AM 31.1979 121.3363 350° North  Level Estimated
Tue 06:30:00 AM 31.1979 121.3363 350° North  Level Estimated
Tue 06:31:00 AM 31.1979 121.3363 350° North  Level Estimated
Tue 06:32:00 AM 31.1979 121.3363 350° North  Level Estimated
Tue 06:33:00 AM 31.1979 121.3363 350° North  Level Estimated
Tue 06:34:00 AM 31.1979 121.3363 350° North  Level Estimated
Tue 06:35:00 AM 31.1979 121.3363 350° North  Level Estimated
Tue 06:36:00 AM 31.1979 121.3363 350° North  Level Estimated
Tue 06:37:00 AM 31.1979 121.3363 350° North  Level Estimated
Tue 06:38:00 AM 31.1979 121.3363 350° North  Level Estimated
Tue 06:39:00 AM 31.1979 121.3363 350° North  Level Estimated
Tue 06:40:00 AM 31.1979 121.3363 350° North  Level Estimated
Tue 06:41:00 AM 31.1979 121.3363 350° North  Level Estimated
Tue 06:42:00 AM 31.1979 121.3363 350° North  Level Estimated
Tue 06:43:00 AM 31.1979 121.3363 350° North  Level Estimated
Tue 06:44:00 AM 31.1979 121.3363 350° North  Level Estimated
Tue 06:45:00 AM 31.1979 121.3363 350° North  Level Estimated
Tue 06:46:00 AM 31.1979 121.3363 350° North  Level Estimated
Tue 06:47:00 AM 31.1979 121.3363 350° North  Level Estimated
Tue 06:48:00 AM 31.1979 121.3363 350° North  Level Estimated
Tue 06:49:00 AM 31.1979 121.3363 350° North  Level Estimated
Tue 06:50:00 AM 31.1979 121.3363 350° North  Level Estimated
Tue 06:51:00 AM 31.1979 121.3363 350° North  Level Estimated
Tue 06:52:00 AM 31.1979 121.3363 350° North  Level Estimated
Tue 06:53:00 AM 31.1979 121.3363 350° North  Level Estimated
Tue 06:54:00 AM 31.1979 121.3363 350° North  Level Estimated
Tue 06:55:00 AM 31.1979 121.3363 350° North  Level Estimated
Tue 06:56:00 AM 31.1979 121.3363 350° North  Level Estimated
Tue 06:57:00 AM 31.1979 121.3363 350° North  Level Estimated
Tue 06:58:00 AM 31.1979 121.3363 350° North  Level Estimated
Tue 06:59:00 AM 31.1979 121.3363 350° North  Level Estimated
Tue 07:00:00 AM 31.1979 121.3363 350° North  Level Estimated
Tue 07:01:00 AM 31.1979 121.3363 350° North  Level Estimated
Tue 07:02:00 AM 31.1979 121.3363 350° North  Level Estimated
Tue 07:03:00 AM 31.1979 121.3363 350° North  Level Estimated
Tue 07:04:00 AM 31.1979 121.3363 350° North  Level Estimated
Tue 07:05:00 AM 31.1979 121.3363 350° North  Level Estimated
Tue 07:06:00 AM 31.1979 121.3363 350° North  Level Estimated
Tue 07:07:00 AM 31.1979 121.3363 350° North  Level Estimated
Tue 07:08:00 AM 31.1979 121.3363 350° North  Level Estimated
Tue 07:09:00 AM 31.1979 121.3363 350° North  Level Estimated
Tue 07:10:00 AM 31.1979 121.3363 350° North  Level Estimated
Tue 07:11:00 AM 31.1979 121.3363 350° North  Level Estimated
Tue 07:12:00 AM 31.1979 121.3363 350° North  Level Estimated
Tue 07:13:00 AM 31.1979 121.3363 350° North  Level Estimated
Tue 07:14:00 AM 31.1979 121.3363 350° North  Level Estimated
Tue 07:15:00 AM 31.1979 121.3363 350° North  Level Estimated
Tue 07:16:00 AM 31.1979 121.3363 350° North  Level Estimated
Tue 07:17:00 AM 31.1979 121.3363 350° North  Level Estimated
Tue 07:18:00 AM 31.1979 121.3363 350° North  Level Estimated
Tue 07:19:00 AM 31.1979 121.3363 350° North  Level Estimated
Tue 07:20:00 AM 31.1979 121.3363 350° North  Level Estimated
Tue 07:21:00 AM 31.1979 121.3363 350° North  Level Estimated
Tue 07:22:00 AM 31.1979 121.3363 350° North  Level Estimated
Tue 07:23:00 AM 31.1979 121.3363 350° North  Level Estimated
Tue 07:24:00 AM 31.1979 121.3363 350° North  Level Estimated
Tue 07:25:00 AM 31.1979 121.3363 350° North  Level Estimated
Tue 07:26:00 AM 31.1979 121.3363 350° North  Level Estimated
Tue 07:27:00 AM 31.1979 121.3363 350° North  Level Estimated
Tue 07:28:00 AM 31.1979 121.3363 350° North  Level Estimated
Tue 07:29:00 AM 31.1979 121.3363 350° North  Level Estimated
Tue 07:30:00 AM 31.1979 121.3363 350° North  Level Estimated
Tue 07:31:00 AM 31.1979 121.3363 350° North  Level Estimated
Tue 07:32:00 AM 31.1979 121.3363 350° North  Level Estimated
Tue 07:33:00 AM 31.1979 121.3363 350° North  Level Estimated
Tue 07:34:00 AM 31.1979 121.3363 350° North  Level Estimated
Tue 07:35:00 AM 31.1979 121.3363 350° North  Level Estimated
Tue 07:36:00 AM 31.1979 121.3363 350° North  Level Estimated
Tue 07:37:00 AM 31.1979 121.3363 350° North  Level Estimated
Tue 07:38:00 AM 31.1979 121.3363 350° North  Level Estimated
Tue 07:39:00 AM 31.1979 121.3363 350° North  Level Estimated
Tue 07:40:00 AM 31.1979 121.3363 350° North  Level Estimated
Tue 07:41:00 AM 31.1979 121.3363 350° North  Level Estimated
Tue 07:42:00 AM 31.1979 121.3363 350° North  Level Estimated
Tue 07:43:00 AM 31.1979 121.3363 350° North  Level Estimated
Tue 07:44:00 AM 31.1979 121.3363 350° North  Level Estimated
Tue 07:45:00 AM 31.1979 121.3363 350° North  Level Estimated
Tue 07:46:00 AM 31.1979 121.3363 350° North  Level Estimated
Tue 07:47:00 AM 31.1979 121.3363 350° North  Level Estimated
Tue 07:48:00 AM 31.1979 121.3363 350° North  Level Estimated
Tue 07:49:00 AM 31.1979 121.3363 350° North  Level Estimated
Tue 07:50:00 AM 31.1979 121.3363 350° North  Level Estimated
Tue 07:51:00 AM 31.1979 121.3363 350° North  Level Estimated
Tue 07:52:00 AM 31.1979 121.3363 350° North  Level Estimated
Tue 07:53:00 AM 31.1979 121.3363 350° North  Level Estimated
Tue 07:54:00 AM 31.1979 121.3363 350° North  Level Estimated
Tue 07:55:00 AM 31.1979 121.3363 350° North  Level Estimated
Tue 07:56:00 AM 31.1979 121.3363 350° North  Level Estimated
Tue 07:57:00 AM 31.1979 121.3363 350° North  Level Estimated
Tue 07:58:00 AM 31.1979 121.3363 350° North  Level Estimated
Tue 07:59:00 AM 31.1979 121.3363 350° North  Level Estimated
Tue 08:00:00 AM 31.1979 121.3363 350° North  Level Estimated
Tue 08:01:00 AM 31.1979 121.3363 350° North  Level Estimated
Tue 08:02:00 AM 31.1979 121.3363 350° North  Level Estimated
Tue 08:03:00 AM 31.1979 121.3363 350° North  Level Estimated
Tue 08:04:00 AM 31.1979 121.3363 350° North  Level Estimated
Tue 08:05:00 AM 31.1979 121.3363 350° North  Level Estimated
Tue 08:06:00 AM 31.1979 121.3363 350° North  Level Estimated
Tue 08:07:00 AM 31.1979 121.3363 350° North  Level Estimated
Tue 08:08:00 AM 31.1979 121.3363 350° North  Level Estimated
Tue 08:09:00 AM 31.1979 121.3363 350° North  Level Estimated
Tue 08:10:00 AM 31.1979 121.3363 350° North  Level Estimated
Tue 08:11:00 AM 31.1979 121.3363 350° North  Level Estimated
Tue 08:12:00 AM 31.1979 121.3363 350° North  Level Estimated
Tue 08:13:00 AM 31.1979 121.3363 350° North  Level Estimated
Tue 08:14:00 AM 31.1979 121.3363 350° North  Level Estimated
Tue 08:15:00 AM 31.1979 121.3363 350° North  Level Estimated
Tue 08:16:00 AM 31.1979 121.3363 350° North  Level Estimated
Tue 08:17:00 AM 31.1979 121.3363 350° North  Level Estimated
Tue 08:18:00 AM 31.1979 121.3363 350° North  Level Estimated
Tue 08:19:00 AM 31.1979 121.3363 350° North  Level Estimated
Tue 08:20:00 AM 31.1979 121.3363 350° North  Level Estimated
Tue 08:21:00 AM 31.1979 121.3363 350° North  Level Estimated
Tue 08:22:00 AM 31.1979 121.3363 350° North  Level Estimated
Tue 08:23:00 AM 31.1979 121.3363 350° North  Level Estimated
Tue 08:24:00 AM 31.1979 121.3363 350° North  Level Estimated
Tue 08:25:00 AM 31.1979 121.3363 350° North  Level Estimated
Tue 08:26:00 AM 31.1979 121.3363 350° North  Level Estimated
Tue 08:27:00 AM 31.1979 121.3363 350° North  Level Estimated
Tue 08:28:00 AM 31.1979 121.3363 350° North  Level Estimated
Tue 08:29:00 AM 31.1979 121.3363 350° North  Level Estimated
Tue 08:30:00 AM 31.1979 121.3363 350° North  Level Estimated
Tue 08:31:00 AM 31.1979 121.3363 350° North  Level Estimated
Tue 08:32:00 AM 31.1979 121.3363 350° North  Level Estimated
Tue 08:33:00 AM 31.1979 121.3363 350° North  Level Estimated
Tue 08:34:00 AM 31.1979 121.3363 350° North  Level Estimated
Tue 08:35:00 AM 31.1979 121.3363 350° North  Level Estimated
Tue 08:36:00 AM 31.1979 121.3363 350° North  Level Estimated
Tue 08:37:00 AM 31.1979 121.3363 350° North  Level Estimated
Tue 08:38:00 AM 31.1979 121.3363 350° North  Level Estimated
Tue 08:39:00 AM 31.1979 121.3363 350° North  Level Estimated
Tue 08:40:00 AM 31.1979 121.3363 350° North  Level Estimated
Tue 08:41:00 AM 31.1979 121.3363 350° North  Level Estimated
Tue 08:42:00 AM 31.1979 121.3363 350° North  Level Estimated
Tue 08:43:00 AM 31.1979 121.3363 350° North  Level Estimated
Tue 08:44:00 AM 31.1979 121.3363 350° North  Level Estimated
Tue 08:45:00 AM 31.1979 121.3363 350° North  Level Estimated
Tue 08:46:00 AM 31.1979 121.3363 350° North  Level Estimated
Tue 08:47:00 AM 31.1979 121.3363 350° North  Level Estimated
Tue 08:48:00 AM 31.1979 121.3363 350° North  Level Estimated
Tue 08:49:00 AM 31.1979 121.3363 350° North  Level Estimated
Tue 08:50:00 AM 31.1979 121.3363 350° North  Level Estimated
Tue 08:51:00 AM 31.1979 121.3363 350° North  Level Estimated
Tue 08:52:00 AM 31.1979 121.3363 350° North  Level Estimated
Tue 08:53:00 AM 31.1979 121.3363 350° North  Level Estimated
Tue 08:54:00 AM 31.1979 121.3363 350° North  Level Estimated
Tue 08:55:00 AM 31.1979 121.3363 350° North  Level Estimated
Tue 08:56:00 AM 31.1979 121.3363 350° North  Level Estimated
Tue 08:57:00 AM 31.1979 121.3363 350° North  Level Estimated
Tue 08:58:00 AM 31.1979 121.3363 350° North  Level Estimated
Tue 08:59:00 AM 31.1979 121.3363 350° North  Level Estimated
Tue 09:00:00 AM 31.1979 121.3363 350° North  Level Estimated
Tue 09:01:00 AM 31.1979 121.3363 350° North  Level Estimated
Tue 09:02:00 AM 31.1979 121.3363 350° North  Level Estimated
Tue 09:03:00 AM 31.1979 121.3363 350° North  Level Estimated
Tue 09:04:00 AM 31.1979 121.3363 350° North  Level Estimated
Tue 09:05:00 AM 31.1979 121.3363 350° North  Level Estimated
Tue 09:06:00 AM 31.1979 121.3363 350° North  Level Estimated
Tue 09:07:00 AM 31.1979 121.3363 350° North  Level Estimated
Tue 09:08:00 AM 31.1979 121.3363 350° North  Level Estimated
Tue 09:09:00 AM 31.1979 121.3363 350° North  Level Estimated
Tue 09:10:00 AM 31.1979 121.3363 350° North  Level Estimated
Tue 09:11:00 AM 31.1979 121.3363 350° North  Level Estimated
Tue 09:12:00 AM 31.1979 121.3363 350° North  Level Estimated
Tue 09:13:00 AM 31.1979 121.3363 350° North  Level Estimated
Tue 09:14:00 AM 31.1979 121.3363 350° North  Level Estimated
Tue 09:15:00 AM 31.1979 121.3363 350° North  Level Estimated
Tue 09:16:00 AM 31.1979 121.3363 350° North  Level Estimated
Tue 09:17:00 AM 31.1979 121.3363 350° North  Level Estimated
Tue 09:18:00 AM 31.1979 121.3363 350° North  Level Estimated
Tue 09:19:00 AM 31.1979 121.3363 350° North  Level Estimated
Tue 09:20:00 AM 31.1979 121.3363 350° North  Level Estimated
Tue 09:21:00 AM 31.1979 121.3363 350° North  Level Estimated
Tue 09:22:00 AM 31.1979 121.3363 350° North  Level Estimated
Tue 09:23:00 AM 31.1979 121.3363 350° North  Level Estimated
Tue 09:24:00 AM 31.1979 121.3363 350° North  Level Estimated
Tue 09:25:00 AM 31.1979 121.3363 350° North  Level Estimated
Tue 09:26:00 AM 31.1979 121.3363 350° North  Level Estimated
Tue 09:27:00 AM 31.1979 121.3363 350° North  Level Estimated
Tue 09:28:00 AM 31.1979 121.3363 350° North  Level Estimated
Tue 09:29:00 AM 31.1979 121.3363 350° North  Level Estimated
Tue 09:30:00 AM 31.1979 121.3363 350° North  Level Estimated
Tue 09:31:00 AM 31.1979 121.3363 350° North  Level Estimated
Tue 09:32:00 AM 31.1979 121.3363 350° North  Level Estimated
Tue 09:33:00 AM 31.1979 121.3363 350° North  Level Estimated
Tue 09:34:00 AM 31.1979 121.3363 350° North  Level Estimated
Tue 09:35:00 AM 31.1979 121.3363 350° North  Level Estimated
Tue 09:36:00 AM 31.1979 121.3363 350° North  Level Estimated
Tue 09:37:00 AM 31.1979 121.3363 350° North  Level Estimated
Tue 09:38:00 AM 31.1979 121.3363 350° North  Level Estimated
Tue 09:39:00 AM 31.1979 121.3363 350° North  Level Estimated
Tue 09:40:00 AM 31.1979 121.3363 350° North  Level Estimated
Tue 09:41:00 AM 31.1979 121.3363 350° North  Level Estimated
Tue 09:42:00 AM 31.1979 121.3363 350° North  Level Estimated
Tue 09:43:00 AM 31.1979 121.3363 350° North  Level Estimated
Tue 09:44:00 AM 31.1979 121.3363 350° North  Level Estimated
Tue 09:45:00 AM 31.1979 121.3363 350° North  Level Estimated
Tue 09:46:00 AM 31.1979 121.3363 350° North  Level Estimated
Tue 09:47:00 AM 31.1979 121.3363 350° North  Level Estimated
Tue 09:48:00 AM 31.1979 121.3363 350° North  Level Estimated
Tue 09:49:00 AM 31.1979 121.3363 350° North  Level Estimated
Tue 09:50:00 AM 31.1979 121.3363 350° North  Level Estimated
Tue 09:51:00 AM 31.1979 121.3363 350° North  Level Estimated
Tue 09:52:00 AM 31.1979 121.3363 350° North  Level Estimated
Tue 09:53:00 AM 31.1979 121.3363 350° North  Level Estimated
Tue 09:54:00 AM 31.1979 121.3363 350° North  Level Estimated
Tue 09:55:00 AM 31.1979 121.3363 350° North  Level Estimated
Tue 09:56:00 AM 31.1979 121.3363 350° North  Level Estimated
Tue 09:57:00 AM 31.1979 121.3363 350° North  Level Estimated
Tue 09:58:00 AM 31.1979 121.3363 350° North  Level Estimated
Tue 09:59:00 AM 31.1979 121.3363 350° North  Level Estimated
Tue 10:00:00 AM 31.1979 121.3363 350° North  Level Estimated
Tue 10:01:00 AM 31.1979 121.3363 350° North  Level Estimated
Tue 10:02:00 AM 31.1979 121.3363 350° North  Level Estimated
Tue 10:03:00 AM 31.1979 121.3363 350° North  Level Estimated
Tue 10:04:00 AM 31.1979 121.3363 350° North  Level Estimated
Tue 10:05:00 AM 31.1979 121.3363 350° North  Level Estimated
Tue 10:06:00 AM 31.1979 121.3363 350° North  Level Estimated
Tue 10:07:00 AM 31.1979 121.3363 350° North  Level Estimated
Tue 10:08:00 AM 31.1979 121.3363 350° North  Level Estimated
Tue 10:09:00 AM 31.1979 121.3363 350° North  Level Estimated
Tue 10:10:00 AM 31.1979 121.3363 350° North  Level Estimated
Tue 10:11:00 AM 31.1979 121.3363 350° North  Level Estimated
Tue 10:12:00 AM 31.1979 121.3363 350° North  Level Estimated
Tue 10:13:00 AM 31.1979 121.3363 350° North  Level Estimated
Tue 10:14:00 AM 31.1979 121.3363 350° North  Level Estimated
Tue 10:15:00 AM 31.1979 121.3363 350° North  Level Estimated
Tue 10:16:00 AM 31.1979 121.3363 350° North  Level Estimated
Tue 10:17:00 AM 31.1979 121.3363 350° North  Level Estimated
Tue 10:18:00 AM 31.1979 121.3363 350° North  Level Estimated
Tue 10:19:00 AM 31.1979 121.3363 350° North  Level Estimated
Tue 10:20:00 AM 31.1979 121.3363 350° North  Level Estimated
Tue 10:21:00 AM 31.1979 121.3363 350° North  Level Estimated
Tue 10:22:00 AM 31.1979 121.3363 350° North  Level Estimated
Tue 10:23:00 AM 31.1979 121.3363 350° North  Level Estimated
Tue 10:24:00 AM 31.1979 121.3363 350° North  Level Estimated
Tue 10:25:00 AM 31.1979 121.3363 350° North  Level Estimated
Tue 10:26:00 AM 31.1979 121.3363 350° North  Level Estimated
Tue 10:27:00 AM 31.1979 121.3363 350° North  Level Estimated
Tue 10:28:00 AM 31.1979 121.3363 350° North  Level Estimated
Tue 10:29:00 AM 31.1979 121.3363 350° North  Level Estimated
Tue 10:30:00 AM 31.1979 121.3363 350° North  Level Estimated
Tue 10:31:00 AM 31.1979 121.3363 350° North  Level Estimated
Tue 10:32:00 AM 31.1979 121.3363 350° North  Level Estimated
Tue 10:33:00 AM 31.1979 121.3363 350° North  Level Estimated
Tue 10:34:00 AM 31.1979 121.3363 350° North  Level Estimated
Tue 10:35:00 AM 31.1979 121.3363 350° North  Level Estimated
Tue 10:36:00 AM 31.1979 121.3363 350° North  Level Estimated
Tue 10:37:00 AM 31.1979 121.3363 350° North  Level Estimated
Tue 10:38:00 AM 31.1979 121.3363 350° North  Level Estimated
Tue 10:39:00 AM 31.1979 121.3363 350° North  Level Estimated
Tue 10:40:00 AM 31.1979 121.3363 350° North  Level Estimated
Tue 10:41:00 AM 31.1979 121.3363 350° North  Level Estimated
Tue 10:42:00 AM 31.1979 121.3363 350° North  Level Estimated
Tue 10:43:00 AM 31.1979 121.3363 350° North  Level Estimated
Tue 10:44:00 AM 31.1979 121.3363 350° North  Level Estimated
Tue 10:45:00 AM 31.1979 121.3363 350° North  Level Estimated
Tue 10:46:00 AM 31.1979 121.3363 350° North  Level Estimated
Tue 10:47:00 AM 31.1979 121.3363 350° North  Level Estimated
Tue 10:48:00 AM 31.1979 121.3363 350° North  Level Estimated
Tue 10:49:00 AM 31.1979 121.3363 350° North  Level Estimated
Tue 10:50:00 AM 31.1979 121.3363 350° North  Level Estimated
Tue 10:51:00 AM 31.1979 121.3363 350° North  Level Estimated
Tue 10:52:00 AM 31.1979 121.3363 350° North  Level Estimated
Tue 10:53:00 AM 31.1979 121.3363 350° North  Level Estimated
Tue 10:54:00 AM 31.1979 121.3363 350° North  Level Estimated
Tue 10:55:00 AM 31.1979 121.3363 350° North  Level Estimated
Tue 10:56:00 AM 31.1979 121.3363 350° North  Level Estimated
Tue 10:57:00 AM 31.1979 121.3363 350° North  Level Estimated
Tue 10:58:00 AM 31.1979 121.3363 350° North  Level Estimated
Tue 10:59:00 AM 31.1979 121.3363 350° North  Level Estimated
Tue 11:00:00 AM 31.1979 121.3363 350° North  Level Estimated
Tue 11:01:00 AM 31.1979 121.3363 350° North  Level Estimated
Tue 11:02:00 AM 31.1979 121.3363 350° North  Level Estimated
Tue 11:03:00 AM 31.1979 121.3363 350° North  Level Estimated
Tue 11:04:00 AM 31.1979 121.3363 350° North  Level Estimated
Tue 11:05:00 AM 31.1979 121.3363 350° North  Level Estimated
Tue 11:06:00 AM 31.1979 121.3363 350° North  Level Estimated
Tue 11:07:00 AM 31.1979 121.3363 350° North  Level Estimated
Tue 11:07:36 AM 31.1979 121.3363 350° North  Level Estimated
Tue 11:08:00 AM 31.1979 121.3363 350° North  Level Estimated
Tue 11:09:00 AM 31.1979 121.3363 350° North  Level Estimated
Tue 11:09:00 AM 31.1979 121.3363 350° North  Level Estimated
Tue 11:10:00 AM 31.1979 121.3363 350° North  Level Estimated
Tue 11:10:00 AM 31.1979 121.3363 350° North  Level Estimated
Tue 11:11:00 AM 31.1979 121.3363 350° North  Level Estimated
Tue 11:11:00 AM 31.1979 121.3363 350° North  Level Estimated
Tue 11:12:00 AM 31.1979 121.3363 350° North  Level Estimated
Tue 11:12:00 AM 31.1979 121.3363 350° North  Level Estimated
Tue 11:13:00 AM 31.1979 121.3363 350° North  Level Estimated
Tue 11:13:00 AM 31.1979 121.3363 350° North  Level Estimated
Tue 11:14:00 AM 31.1979 121.3363 350° North  Level Estimated
Tue 11:15:00 AM 31.1979 121.3363 350° North  Level Estimated
Tue 11:16:00 AM 31.1979 121.3363 350° North  Level Estimated
Tue 11:17:00 AM 31.1979 121.3363 350° North  Level Estimated
Tue 11:18:00 AM 31.1979 121.3363 350° North  Level Estimated
Tue 11:19:00 AM 31.1979 121.3363 350° North  Level Estimated
Tue 11:20:00 AM 31.1979 121.3363 350° North  Level Estimated
Tue 11:21:00 AM 31.1979 121.3363 350° North  Level Estimated
Tue 11:22:00 AM 31.1979 121.3363 350° North  Level Estimated
Tue 11:23:00 AM 31.1979 121.3363 350° North  Level Estimated
Tue 11:24:00 AM 31.1979 121.3363 350° North  Level Estimated
Tue 11:25:00 AM 31.1979 121.3363 350° North  Level Estimated
Tue 11:26:00 AM 31.1979 121.3363 350° North  Level Estimated
Tue 11:27:00 AM 31.1979 121.3363 350° North  Level Estimated
Tue 11:28:00 AM 31.1979 121.3363 350° North  Level Estimated
Tue 11:29:00 AM 31.1979 121.3363 350° North  Level Estimated
Tue 11:30:00 AM 31.1979 121.3363 350° North  Level Estimated
Tue 11:31:00 AM 31.1979 121.3363 350° North  Level Estimated
Tue 11:32:00 AM 31.1979 121.3363 350° North  Level Estimated
Tue 11:33:00 AM 31.1979 121.3363 350° North  Level Estimated
Tue 11:34:00 AM 31.1979 121.3363 350° North  Level Estimated
Tue 11:35:00 AM 31.1979 121.3363 350° North  Level Estimated
Tue 11:36:00 AM 31.1979 121.3363 350° North  Level Estimated
Tue 11:37:00 AM 31.1979 121.3363 350° North  Level Estimated
Tue 11:38:00 AM 31.1979 121.3363 350° North  Level Estimated
Tue 11:39:00 AM 31.1979 121.3363 350° North  Level Estimated
Tue 11:40:00 AM 31.1979 121.3363 350° North  Level Estimated
Tue 11:41:00 AM 31.1979 121.3363 350° North  Level Estimated
Tue 11:42:00 AM 31.1979 121.3363 350° North  Level Estimated
Tue 11:43:00 AM 31.1979 121.3363 350° North  Level Estimated
Tue 11:44:00 AM 31.1979 121.3363 350° North  Level Estimated
Tue 11:45:00 AM 31.1979 121.3363 350° North  Level Estimated
Tue 11:46:00 AM 31.1979 121.3363 350° North  Level Estimated
Tue 11:47:00 AM 31.1979 121.3363 350° North  Level Estimated
Tue 11:48:00 AM 31.1979 121.3363 350° North  Level Estimated
Tue 11:49:00 AM 31.1979 121.3363 350° North  Level Estimated
Tue 11:50:00 AM 31.1979 121.3363 350° North  Level Estimated
Tue 11:51:00 AM 31.1979 121.3363 350° North  Level Estimated
Tue 11:52:00 AM 31.1979 121.3363 350° North  Level Estimated
Tue 11:53:00 AM 31.1979 121.3363 350° North  Level Estimated
Tue 11:54:00 AM 31.1979 121.3363 350° North  Level Estimated
Tue 11:55:00 AM 31.1979 121.3363 350° North  Level Estimated
Tue 11:56:00 AM 31.1979 121.3363 350° North  Level Estimated
Tue 11:57:00 AM 31.1979 121.3363 350° North  Level Estimated
Tue 11:58:00 AM 31.1979 121.3363 350° North  Level Estimated
Tue 11:59:00 AM 31.1979 121.3363 350° North  Level Estimated
Tue 12:00:00 PM 31.1979 121.3363 350° North  Level Estimated
Tue 12:01:00 PM 31.1979 121.3363 350° North  Level Estimated
Tue 12:02:00 PM 31.1979 121.3363 350° North  Level Estimated
Tue 12:03:00 PM 31.1979 121.3363 350° North  Level Estimated
Tue 12:04:00 PM 31.1979 121.3363 350° North  Level Estimated
Tue 12:05:00 PM 31.1979 121.3363 350° North  Level Estimated
Tue 12:06:00 PM 31.1979 121.3363 350° North  Level Estimated
Tue 12:07:00 PM 31.1979 121.3363 350° North  Level Estimated
Tue 12:08:00 PM 31.1979 121.3363 350° North  Level Estimated
Tue 12:09:00 PM 31.1979 121.3363 350° North  Level Estimated
Tue 12:10:00 PM 31.1979 121.3363 350° North  Level Estimated
Tue 12:11:00 PM 31.1979 121.3363 350° North  Level Estimated
Tue 12:12:00 PM 31.1979 121.3363 350° North  Level Estimated
Tue 12:13:00 PM 31.1979 121.3363 350° North  Level Estimated
Tue 12:14:00 PM 31.1979 121.3363 350° North  Level Estimated
Tue 12:15:00 PM 31.1979 121.3363 350° North  Level Estimated
Tue 12:16:00 PM 31.1979 121.3363 350° North  Level Estimated
Tue 12:17:00 PM 31.1979 121.3363 350° North  Level Estimated
Tue 12:18:00 PM 31.1979 121.3363 350° North  Level Estimated
Tue 12:19:00 PM 31.1979 121.3363 350° North  Level Estimated
Tue 12:20:00 PM 31.1979 121.3363 350° North  Level Estimated
Tue 12:21:00 PM 31.1979 121.3363 350° North  Level Estimated
Tue 12:22:00 PM 31.1979 121.3363 350° North  Level Estimated
Tue 12:23:00 PM 31.1979 121.3363 350° North  Level Estimated
Tue 12:24:00 PM 31.1979 121.3363 350° North  Level Estimated
Tue 12:25:00 PM 31.1979 121.3363 350° North  Level Estimated
Tue 12:26:00 PM 31.1979 121.3363 350° North  Level Estimated
Tue 12:27:00 PM 31.1979 121.3363 350° North  Level Estimated
Tue 12:28:00 PM 31.1979 121.3363 350° North  Level Estimated
Tue 12:29:00 PM 31.1979 121.3363 350° North  Level Estimated
Tue 12:30:00 PM 31.1979 121.3363 350° North  Level Estimated
Tue 12:31:00 PM 31.1979 121.3363 350° North  Level Estimated
Tue 12:32:00 PM 31.1979 121.3363 350° North  Level Estimated
Tue 12:33:00 PM 31.1979 121.3363 350° North  Level Estimated
Tue 12:34:00 PM 31.1979 121.3363 350° North  Level Estimated
Tue 12:35:00 PM 31.1979 121.3363 350° North  Level Estimated
Tue 12:36:00 PM 31.1979 121.3363 350° North  Level Estimated
Tue 12:37:00 PM 31.1979 121.3363 350° North  Level Estimated
Tue 12:38:00 PM 31.1979 121.3363 350° North  Level Estimated
Tue 12:39:00 PM 31.1979 121.3363 350° North  Level Estimated
Tue 12:40:00 PM 31.1979 121.3363 350° North  Level Estimated
Tue 12:41:00 PM 31.1979 121.3363 350° North  Level Estimated
Tue 12:42:00 PM 31.1979 121.3363 350° North  Level Estimated
Tue 12:43:00 PM 31.1979 121.3363 350° North  Level Estimated
Tue 12:44:00 PM 31.1979 121.3363 350° North  Level Estimated
Tue 12:45:00 PM 31.1979 121.3363 350° North  Level Estimated
Tue 12:46:00 PM 31.1979 121.3363 350° North  Level Estimated
Tue 12:47:00 PM 31.1979 121.3363 350° North  Level Estimated
Tue 12:48:00 PM 31.1979 121.3363 350° North  Level Estimated
Tue 12:49:00 PM 31.1979 121.3363 350° North  Level Estimated
Tue 12:50:00 PM 31.1979 121.3363 350° North  Level Estimated
Tue 12:51:00 PM 31.1979 121.3363 350° North  Level Estimated
Tue 12:52:00 PM 31.1979 121.3363 350° North  Level Estimated
Tue 12:53:00 PM 31.1979 121.3363 350° North  Level Estimated
Tue 12:54:00 PM 31.1979 121.3363 350° North  Level Estimated
Tue 12:55:00 PM 31.1979 121.3363 350° North  Level Estimated
Tue 12:56:00 PM 31.1979 121.3363 350° North  Level Estimated
Tue 12:57:00 PM 31.1979 121.3363 350° North  Level Estimated
Tue 12:58:00 PM 31.1979 121.3363 350° North  Level Estimated
Tue 12:59:00 PM 31.1979 121.3363 350° North  Level Estimated
Tue 01:00:00 PM 31.1979 121.3363 350° North  Level Estimated
Tue 01:01:00 PM 31.1979 121.3363 350° North  Level Estimated
Tue 01:02:00 PM 31.1979 121.3363 350° North  Level Estimated
Tue 01:03:00 PM 31.1979 121.3363 350° North  Level Estimated
Tue 01:04:00 PM 31.1979 121.3363 350° North  Level Estimated
Tue 01:05:00 PM 31.1979 121.3363 350° North  Level Estimated
Tue 01:06:00 PM 31.1979 121.3363 350° North  Level Estimated
Tue 01:07:00 PM 31.1979 121.3363 350° North  Level Estimated
Tue 01:08:00 PM 31.1979 121.3363 350° North  Level Estimated
Tue 01:09:00 PM 31.1979 121.3363 350° North  Level Estimated
Tue 01:10:00 PM 31.1979 121.3363 350° North  Level Estimated
Tue 01:11:00 PM 31.1979 121.3363 350° North  Level Estimated
Tue 01:12:00 PM 31.1979 121.3363 350° North  Level Estimated
Tue 01:13:00 PM 31.1979 121.3363 350° North  Level Estimated
Tue 01:14:00 PM 31.1979 121.3363 350° North  Level Estimated
Tue 01:15:00 PM 31.1979 121.3363 350° North  Level Estimated
Tue 01:16:00 PM 31.1979 121.3363 350° North  Level Estimated
Tue 01:17:00 PM 31.1979 121.3363 350° North  Level Estimated
Tue 01:18:00 PM 31.1979 121.3363 350° North  Level Estimated
Tue 01:19:00 PM 31.1979 121.3363 350° North  Level Estimated
Tue 01:20:00 PM 31.1979 121.3363 350° North  Level Estimated
Tue 01:21:00 PM 31.1979 121.3363 350° North  Level Estimated
Tue 01:22:00 PM 31.1979 121.3363 350° North  Level Estimated
Tue 01:23:00 PM 31.1979 121.3363 350° North  Level Estimated
Tue 01:24:00 PM 31.1979 121.3363 350° North  Level Estimated
Tue 01:25:00 PM 31.1979 121.3363 350° North  Level Estimated
Tue 01:26:00 PM 31.1979 121.3363 350° North  Level Estimated
Tue 01:27:00 PM 31.1979 121.3363 350° North  Level Estimated
Tue 01:28:00 PM 31.1979 121.3363 350° North  Level Estimated
Tue 01:29:00 PM 31.1979 121.3363 350° North  Level Estimated
Tue 01:30:00 PM 31.1979 121.3363 350° North  Level Estimated
Tue 01:31:00 PM 31.1979 121.3363 350° North  Level Estimated
Tue 01:32:00 PM 31.1979 121.3363 350° North  Level Estimated
Tue 01:33:00 PM 31.1979 121.3363 350° North  Level Estimated
Tue 01:34:00 PM 31.1979 121.3363 350° North  Level Estimated
Tue 01:35:00 PM 31.1979 121.3363 350° North  Level Estimated
Tue 01:36:00 PM 31.1979 121.3363 350° North  Level Estimated
Tue 01:37:00 PM 31.1979 121.3363 350° North  Level Estimated
Tue 01:38:00 PM 31.1979 121.3363 350° North  Level Estimated
Tue 01:39:00 PM 31.1979 121.3363 350° North  Level Estimated
Tue 01:40:00 PM 31.1979 121.3363 350° North  Level Estimated
Tue 01:41:00 PM 31.1979 121.3363 350° North  Level Estimated
Tue 01:42:00 PM 31.1979 121.3363 350° North  Level Estimated
Tue 01:43:00 PM 31.1979 121.3363 350° North  Level Estimated
Tue 01:44:00 PM 31.1979 121.3363 350° North  Level Estimated
Tue 01:45:00 PM 31.1979 121.3363 350° North  Level Estimated
Tue 01:46:00 PM 31.1979 121.3363 350° North  Level Estimated
Tue 01:47:00 PM 31.1979 121.3363 350° North  Level Estimated
Tue 01:48:00 PM 31.1979 121.3363 350° North  Level Estimated
Tue 01:49:00 PM 31.1979 121.3363 350° North  Level Estimated
Tue 01:50:00 PM 31.1979 121.3363 350° North  Level Estimated
Tue 01:51:00 PM 31.1979 121.3363 350° North  Level Estimated
Tue 01:52:00 PM 31.1979 121.3363 350° North  Level Estimated
Tue 01:53:00 PM 31.1979 121.3363 350° North  Level Estimated
Tue 01:54:00 PM 31.1979 121.3363 350° North  Level Estimated
Tue 01:55:00 PM 31.1979 121.3363 350° North  Level Estimated
Tue 01:56:00 PM 31.1979 121.3363 350° North  Level Estimated
Tue 01:57:00 PM 31.1979 121.3363 350° North  Level Estimated
Tue 01:58:00 PM 31.1979 121.3363 350° North  Level Estimated
Tue 01:59:00 PM 31.1979 121.3363 350° North  Level Estimated
Tue 02:00:00 PM 31.1979 121.3363 350° North  Level Estimated
Tue 02:01:00 PM 31.1979 121.3363 350° North  Level Estimated
Tue 02:02:00 PM 31.1979 121.3363 350° North  Level Estimated
Tue 02:03:00 PM 31.1979 121.3363 350° North  Level Estimated
Tue 02:04:00 PM 31.1979 121.3363 350° North  Level Estimated
Tue 02:05:00 PM 31.1979 121.3363 350° North  Level Estimated
Tue 02:06:00 PM 31.1979 121.3363 350° North  Level Estimated
Tue 02:07:00 PM 31.1979 121.3363 350° North  Level Estimated
Tue 02:08:00 PM 31.1979 121.3363 350° North  Level Estimated
Tue 02:09:00 PM 31.1979 121.3363 350° North  Level Estimated
Tue 02:10:00 PM 31.1979 121.3363 350° North  Level Estimated
Tue 02:11:00 PM 31.1979 121.3363 350° North  Level Estimated
Tue 02:12:00 PM 31.1979 121.3363 350° North  Level Estimated
Tue 02:13:00 PM 31.1979 121.3363 350° North  Level Estimated
Tue 02:14:00 PM 31.1979 121.3363 350° North  Level Estimated
Tue 02:15:00 PM 31.1979 121.3363 350° North  Level Estimated
Tue 02:16:00 PM 31.1979 121.3363 350° North  Level Estimated
Tue 02:17:00 PM 31.1979 121.3363 350° North  Level Estimated
Tue 02:18:00 PM 31.1979 121.3363 350° North  Level Estimated
Tue 02:19:00 PM 31.1979 121.3363 350° North  Level Estimated
Tue 02:20:00 PM 31.1979 121.3363 350° North  Level Estimated
Tue 02:21:00 PM 31.1979 121.3363 350° North  Level Estimated
Tue 02:22:00 PM 31.1979 121.3363 350° North  Level Estimated
Tue 02:23:00 PM 31.1979 121.3363 350° North  Level Estimated
Tue 02:24:00 PM 31.1979 121.3363 350° North  Level Estimated
Tue 02:25:00 PM 31.1979 121.3363 350° North  Level Estimated
Tue 02:26:00 PM 31.1979 121.3363 350° North  Level Estimated
Tue 02:27:00 PM 31.1979 121.3363 350° North  Level Estimated
Tue 02:28:00 PM 31.1979 121.3363 350° North  Level Estimated
Tue 02:29:00 PM 31.1979 121.3363 350° North  Level Estimated
Tue 02:30:00 PM 31.1979 121.3363 350° North  Level Estimated
Tue 02:31:00 PM 31.1979 121.3363 350° North  Level Estimated
Tue 02:32:00 PM 31.1979 121.3363 350° North  Level Estimated
Tue 02:33:00 PM 31.1979 121.3363 350° North  Level Estimated
Tue 02:34:00 PM 31.1979 121.3363 350° North  Level Estimated
Tue 02:35:00 PM 31.1979 121.3363 350° North  Level Estimated
Tue 02:36:00 PM 31.1979 121.3363 350° North  Level Estimated
Tue 02:37:00 PM 31.1979 121.3363 350° North  Level Estimated
Tue 02:38:00 PM 31.1979 121.3363 350° North  Level Estimated
Tue 02:39:00 PM 31.1979 121.3363 350° North  Level Estimated
Tue 02:40:00 PM 31.1979 121.3363 350° North  Level Estimated
Tue 02:41:00 PM 31.1979 121.3363 350° North  Level Estimated
Tue 02:42:00 PM 31.1979 121.3363 350° North  Level Estimated
Tue 02:43:00 PM 31.1979 121.3363 350° North  Level Estimated
Tue 02:44:00 PM 31.1979 121.3363 350° North  Level Estimated
Tue 02:45:00 PM 31.1979 121.3363 350° North  Level Estimated
Tue 02:46:00 PM 31.1979 121.3363 350° North  Level Estimated
Tue 02:47:00 PM 31.1979 121.3363 350° North  Level Estimated
Tue 02:48:00 PM 31.1979 121.3363 350° North  Level Estimated
Tue 02:49:00 PM 31.1979 121.3363 350° North  Level Estimated
Tue 02:50:00 PM 31.1979 121.3363 350° North  Level Estimated
Tue 02:51:00 PM 31.1979 121.3363 350° North  Level Estimated
Tue 02:52:00 PM 31.1979 121.3363 350° North  Level Estimated
Tue 02:53:00 PM 31.1979 121.3363 350° North  Level Estimated
Tue 02:54:00 PM 31.1979 121.3363 350° North  Level Estimated
Tue 02:55:00 PM 31.1979 121.3363 350° North  Level Estimated
Tue 02:56:00 PM 31.1979 121.3363 350° North  Level Estimated
Tue 02:57:00 PM 31.1979 121.3363 350° North  Level Estimated
Tue 02:58:00 PM 31.1979 121.3363 350° North  Level Estimated
Tue 02:59:00 PM 31.1979 121.3363 350° North  Level Estimated
Tue 03:00:00 PM 31.1979 121.3363 350° North  Level Estimated
Tue 03:01:00 PM 31.1979 121.3363 350° North  Level Estimated
Tue 03:02:00 PM 31.1979 121.3363 350° North  Level Estimated
Tue 03:03:00 PM 31.1979 121.3363 350° North  Level Estimated
Tue 03:04:00 PM 31.1979 121.3363 350° North  Level Estimated
Tue 03:05:00 PM 31.1979 121.3363 350° North  Level Estimated
Tue 03:06:00 PM 31.1979 121.3363 350° North  Level Estimated
Tue 03:07:00 PM 31.1979 121.3363 350° North  Level Estimated
Tue 03:08:00 PM 31.1979 121.3363 350° North  Level Estimated
Tue 03:09:00 PM 31.1979 121.3363 350° North  Level Estimated
Tue 03:10:00 PM 31.1979 121.3363 350° North  Level Estimated
Tue 03:11:00 PM 31.1979 121.3363 350° North  Level Estimated
Tue 03:12:00 PM 31.1979 121.3363 350° North  Level Estimated
Tue 03:13:00 PM 31.1979 121.3363 350° North  Level Estimated
Tue 03:14:00 PM 31.1979 121.3363 350° North  Level Estimated
Tue 03:15:00 PM 31.1979 121.3363 350° North  Level Estimated
Tue 03:16:00 PM 31.1979 121.3363 350° North  Level Estimated
Tue 03:17:00 PM 31.1979 121.3363 350° North  Level Estimated
Tue 03:18:00 PM 31.1979 121.3363 350° North  Level Estimated
Tue 03:19:00 PM 31.1979 121.3363 350° North  Level Estimated
Tue 03:20:00 PM 31.1979 121.3363 350° North  Level Estimated
Tue 03:21:00 PM 31.1979 121.3363 350° North  Level Estimated
Tue 03:22:00 PM 31.1979 121.3363 350° North  Level Estimated
Tue 03:23:00 PM 31.1979 121.3363 350° North  Level Estimated
Tue 03:24:00 PM 31.1979 121.3363 350° North  Level Estimated
Tue 03:25:00 PM 31.1979 121.3363 350° North  Level Estimated
Tue 03:26:00 PM 31.1979 121.3363 350° North  Level Estimated
Tue 03:27:00 PM 31.1979 121.3363 350° North  Level Estimated
Tue 03:28:00 PM 31.1979 121.3363 350° North  Level Estimated
Tue 03:29:00 PM 31.1979 121.3363 350° North  Level Estimated
Tue 03:30:00 PM 31.1979 121.3363 350° North  Level Estimated
Tue 03:31:00 PM 31.1979 121.3363 350° North  Level Estimated
Tue 03:32:00 PM 31.1979 121.3363 350° North  Level Estimated
Tue 03:33:00 PM 31.1979 121.3363 350° North  Level Estimated
Tue 03:34:00 PM 31.1979 121.3363 350° North  Level Estimated
Tue 03:35:00 PM 31.1979 121.3363 350° North  Level Estimated
Tue 03:36:00 PM 31.1979 121.3363 350° North  Level Estimated
Tue 03:37:00 PM 31.1979 121.3363 350° North  Level Estimated
Tue 03:38:00 PM 31.1979 121.3363 350° North  Level Estimated
Tue 03:39:00 PM 31.1979 121.3363 350° North  Level Estimated
Tue 03:40:00 PM 31.1979 121.3363 350° North  Level Estimated
Tue 03:41:00 PM 31.1979 121.3363 350° North  Level Estimated
Tue 03:42:00 PM 31.1979 121.3363 350° North  Level Estimated
Tue 03:43:00 PM 31.1979 121.3363 350° North  Level Estimated
Tue 03:44:00 PM 31.1979 121.3363 350° North  Level Estimated
Tue 03:45:00 PM 31.1979 121.3363 350° North  Level Estimated
Tue 03:46:00 PM 31.1979 121.3363 350° North  Level Estimated
Tue 03:47:00 PM 31.1979 121.3363 350° North  Level Estimated
Tue 03:48:00 PM 31.1979 121.3363 350° North  Level Estimated
Tue 03:49:00 PM 31.1979 121.3363 350° North  Level Estimated
Tue 03:50:00 PM 31.1979 121.3363 350° North  Level Estimated
Tue 03:51:00 PM 31.1979 121.3363 350° North  Level Estimated
Tue 03:52:00 PM 31.1979 121.3363 350° North  Level Estimated
Tue 03:53:00 PM 31.1979 121.3363 350° North  Level Estimated
Tue 03:54:00 PM 31.1979 121.3363 350° North  Level Estimated
Tue 03:55:00 PM 31.1979 121.3363 350° North  Level Estimated
Tue 03:56:00 PM 31.1979 121.3363 350° North  Level Estimated
Tue 03:57:00 PM 31.1979 121.3363 350° North  Level Estimated
Tue 03:58:00 PM 31.1979 121.3363 350° North  Level Estimated
Tue 03:59:00 PM 31.1979 121.3363 350° North  Level Estimated
Tue 04:00:00 PM 31.1979 121.3363 350° North  Level Estimated
Tue 04:01:00 PM 31.1979 121.3363 350° North  Level Estimated
Tue 04:02:00 PM 31.1979 121.3363 350° North  Level Estimated
Tue 04:03:00 PM 31.1979 121.3363 350° North  Level Estimated
Tue 04:04:00 PM 31.1979 121.3363 350° North  Level Estimated
Tue 04:05:00 PM 31.1979 121.3363 350° North  Level Estimated
Tue 04:06:00 PM 31.1979 121.3363 350° North  Level Estimated
Tue 04:07:00 PM 31.1979 121.3363 350° North  Level Estimated
Tue 04:08:00 PM 31.1979 121.3363 350° North  Level Estimated
Tue 04:09:00 PM 31.1979 121.3363 350° North  Level Estimated
Tue 04:10:00 PM 31.1979 121.3363 350° North  Level Estimated
Tue 04:11:00 PM 31.1979 121.3363 350° North  Level Estimated
Tue 04:12:00 PM 31.1979 121.3363 350° North  Level Estimated
Tue 04:13:00 PM 31.1979 121.3363 350° North  Level Estimated
Tue 04:14:00 PM 31.1979 121.3363 350° North  Level Estimated
Tue 04:15:00 PM 31.1979 121.3363 350° North  Level Estimated
Tue 04:16:00 PM 31.1979 121.3363 350° North  Level Estimated
Tue 04:17:00 PM 31.1979 121.3363 350° North  Level Estimated
Tue 04:18:00 PM 31.1979 121.3363 350° North  Level Estimated
Tue 04:19:00 PM 31.1979 121.3363 350° North  Level Estimated
Tue 04:20:00 PM 31.1979 121.3363 350° North  Level Estimated
Tue 04:21:00 PM 31.1979 121.3363 350° North  Level Estimated
Tue 04:22:00 PM 31.1979 121.3363 350° North  Level Estimated
Tue 04:23:00 PM 31.1979 121.3363 350° North  Level Estimated
Tue 04:24:00 PM 31.1979 121.3363 350° North  Level Estimated
Tue 04:25:00 PM 31.1979 121.3363 350° North  Level Estimated
Tue 04:26:00 PM 31.1979 121.3363 350° North  Level Estimated
Tue 04:27:00 PM 31.1979 121.3363 350° North  Level Estimated
Tue 04:28:00 PM 31.1979 121.3363 350° North  Level Estimated
Tue 04:29:00 PM 31.1979 121.3363 350° North  Level Estimated
Tue 04:30:00 PM 31.1979 121.3363 350° North  Level Estimated
Tue 04:31:00 PM 31.1979 121.3363 350° North  Level Estimated
Tue 04:32:00 PM 31.1979 121.3363 350° North  Level Estimated
Tue 04:33:00 PM 31.1979 121.3363 350° North  Level Estimated
Tue 04:34:00 PM 31.1979 121.3363 350° North  Level Estimated
Tue 04:35:00 PM 31.1979 121.3363 350° North  Level Estimated
Tue 04:36:00 PM 31.1979 121.3363 350° North  Level Estimated
Tue 04:37:00 PM 31.1979 121.3363 350° North  Level Estimated
Tue 04:38:00 PM 31.1979 121.3363 350° North  Level Estimated
Tue 04:39:00 PM 31.1979 121.3363 350° North  Level Estimated
Tue 04:40:00 PM 31.1979 121.3363 350° North  Level Estimated
Tue 04:41:00 PM 31.1979 121.3363 350° North  Level Estimated
Tue 04:42:00 PM 31.1979 121.3363 350° North  Level Estimated
Tue 04:43:00 PM 31.1979 121.3363 350° North  Level Estimated
Tue 04:44:00 PM 31.1979 121.3363 350° North  Level Estimated
Tue 04:45:00 PM 31.1979 121.3363 350° North  Level Estimated
Tue 04:46:00 PM 31.1979 121.3363 350° North  Level Estimated
Tue 04:47:00 PM 31.1979 121.3363 350° North  Level Estimated
Tue 04:48:00 PM 31.1979 121.3363 350° North  Level Estimated
Tue 04:49:00 PM 31.1979 121.3363 350° North  Level Estimated
Tue 04:50:00 PM 31.1979 121.3363 350° North  Level Estimated
Tue 04:51:00 PM 31.1979 121.3363 350° North  Level Estimated
Tue 04:52:00 PM 31.1979 121.3363 350° North  Level Estimated
Tue 04:53:00 PM 31.1979 121.3363 350° North  Level Estimated
Tue 04:54:00 PM 31.1979 121.3363 350° North  Level Estimated
Tue 04:55:00 PM 31.1979 121.3363 350° North  Level Estimated
Tue 04:56:00 PM 31.1979 121.3363 350° North  Level Estimated
Tue 04:57:00 PM 31.1979 121.3363 350° North  Level Estimated
Tue 04:58:00 PM 31.1979 121.3363 350° North  Level Estimated
Tue 04:59:00 PM 31.1979 121.3363 350° North  Level Estimated
Tue 05:00:00 PM 31.1979 121.3363 350° North  Level Estimated
Tue 05:01:00 PM 31.1979 121.3363 350° North  Level Estimated
Tue 05:02:00 PM 31.1979 121.3363 350° North  Level Estimated
Tue 05:03:00 PM 31.1979 121.3363 350° North  Level Estimated
Tue 05:04:00 PM 31.1979 121.3363 350° North  Level Estimated
Tue 05:05:00 PM 31.1979 121.3363 350° North  Level Estimated
Tue 05:06:00 PM 31.1979 121.3363 350° North  Level Estimated
Tue 05:07:00 PM 31.1979 121.3363 350° North  Level Estimated
Tue 05:08:00 PM 31.1979 121.3363 350° North  Level Estimated
Tue 05:09:00 PM 31.1979 121.3363 350° North  Level Estimated
Tue 05:10:00 PM 31.1979 121.3363 350° North  Level Estimated
Tue 05:11:00 PM 31.1979 121.3363 350° North  Level Estimated
Tue 05:12:00 PM 31.1979 121.3363 350° North  Level Estimated
Tue 05:13:00 PM 31.1979 121.3363 350° North  Level Estimated
Tue 05:14:00 PM 31.1979 121.3363 350° North  Level Estimated
Tue 05:15:00 PM 31.1979 121.3363 350° North  Level Estimated
Tue 05:16:00 PM 31.1979 121.3363 350° North  Level Estimated
Tue 05:17:00 PM 31.1979 121.3363 350° North  Level Estimated
Tue 05:18:00 PM 31.1979 121.3363 350° North  Level Estimated
Tue 05:19:00 PM 31.1979 121.3363 350° North  Level Estimated
Tue 05:20:00 PM 31.1979 121.3363 350° North  Level Estimated
Tue 05:21:00 PM 31.1979 121.3363 350° North  Level Estimated
Tue 05:22:00 PM 31.1979 121.3363 350° North  Level Estimated
Tue 05:23:00 PM 31.1979 121.3363 350° North  Level Estimated
Tue 05:24:00 PM 31.1979 121.3363 350° North  Level Estimated
Tue 05:25:00 PM 31.1979 121.3363 350° North  Level Estimated
Tue 05:26:00 PM 31.1979 121.3363 350° North  Level Estimated
Tue 05:27:00 PM 31.1979 121.3363 350° North  Level Estimated
Tue 05:28:00 PM 31.1979 121.3363 350° North  Level Estimated
Tue 05:29:00 PM 31.1979 121.3363 350° North  Level Estimated
Tue 05:30:00 PM 31.1979 121.3363 350° North  Level Estimated
Tue 05:31:00 PM 31.1979 121.3363 350° North  Level Estimated
Tue 05:32:00 PM 31.1979 121.3363 350° North  Level Estimated
Tue 05:33:00 PM 31.1979 121.3363 350° North  Level Estimated
Tue 05:34:00 PM 31.1979 121.3363 350° North  Level Estimated
Tue 05:35:00 PM 31.1979 121.3363 350° North  Level Estimated
Tue 05:36:00 PM 31.1979 121.3363 350° North  Level Estimated
Tue 05:37:00 PM 31.1979 121.3363 350° North  Level Estimated
Tue 05:38:00 PM 31.1979 121.3363 350° North  Level Estimated
Tue 05:39:00 PM 31.1979 121.3363 350° North  Level Estimated
Tue 05:40:00 PM 31.1979 121.3363 350° North  Level Estimated
Tue 05:41:00 PM 31.1979 121.3363 350° North  Level Estimated
Tue 05:42:00 PM 31.1979 121.3363 350° North  Level Estimated
Tue 05:43:00 PM 31.1979 121.3363 350° North  Level Estimated
Tue 05:44:00 PM 31.1979 121.3363 350° North  Level Estimated
Tue 05:45:00 PM 31.1979 121.3363 350° North  Level Estimated
Tue 05:46:00 PM 31.1979 121.3363 350° North  Level Estimated
Tue 05:47:00 PM 31.1979 121.3363 350° North  Level Estimated
Tue 05:48:00 PM 31.1979 121.3363 350° North  Level Estimated
Tue 05:49:00 PM 31.1979 121.3363 350° North  Level Estimated
Tue 05:50:00 PM 31.1979 121.3363 350° North  Level Estimated
Tue 05:51:00 PM 31.1979 121.3363 350° North  Level Estimated
Tue 05:52:00 PM 31.1979 121.3363 350° North  Level Estimated
Tue 05:53:00 PM 31.1979 121.3363 350° North  Level Estimated
Tue 05:54:00 PM 31.1979 121.3363 350° North  Level Estimated
Tue 05:55:00 PM 31.1979 121.3363 350° North  Level Estimated
Tue 05:56:00 PM 31.1979 121.3363 350° North  Level Estimated
Tue 05:57:00 PM 31.1979 121.3363 350° North  Level Estimated
Tue 05:58:00 PM 31.1979 121.3363 350° North  Level Estimated
Tue 05:59:00 PM 31.1979 121.3363 350° North  Level Estimated
Tue 06:00:00 PM 31.1979 121.3363 350° North  Level Estimated
Tue 06:01:00 PM 31.1979 121.3363 350° North  Level Estimated
Tue 06:02:00 PM 31.1979 121.3363 350° North  Level Estimated
Tue 06:03:00 PM 31.1979 121.3363 350° North  Level Estimated
Tue 06:04:00 PM 31.1979 121.3363 350° North  Level Estimated
Tue 06:05:00 PM 31.1979 121.3363 350° North  Level Estimated
Tue 06:06:00 PM 31.1979 121.3363 350° North  Level Estimated
Tue 06:07:00 PM 31.1979 121.3363 350° North  Level Estimated
Tue 06:08:00 PM 31.1979 121.3363 350° North  Level Estimated
Tue 06:09:00 PM 31.1979 121.3363 350° North  Level Estimated
Tue 06:10:00 PM 31.1979 121.3363 350° North  Level Estimated
Tue 06:11:00 PM 31.1979 121.3363 350° North  Level Estimated
Tue 06:12:00 PM 31.1979 121.3363 350° North  Level Estimated
Tue 06:13:00 PM 31.1979 121.3363 350° North  Level Estimated
Tue 06:14:00 PM 31.1979 121.3363 350° North  Level Estimated
Tue 06:15:00 PM 31.1979 121.3363 350° North  Level Estimated
Tue 06:16:00 PM 31.1979 121.3363 350° North  Level Estimated
Tue 06:17:00 PM 31.1979 121.3363 350° North  Level Estimated
Tue 06:18:00 PM 31.1979 121.3363 350° North  Level Estimated
Tue 06:19:00 PM 31.1979 121.3363 350° North  Level Estimated
Tue 06:20:00 PM 31.1979 121.3363 350° North  Level Estimated
Tue 06:21:00 PM 31.1979 121.3363 350° North  Level Estimated
Tue 06:22:00 PM 31.1979 121.3363 350° North  Level Estimated
Tue 06:23:00 PM 31.1979 121.3363 350° North  Level Estimated
Tue 06:24:00 PM 31.1979 121.3363 350° North  Level Estimated
Tue 06:25:00 PM 31.1979 121.3363 350° North  Level Estimated
Tue 06:26:00 PM 31.1979 121.3363 350° North  Level Estimated
Tue 06:27:00 PM 31.1979 121.3363 350° North  Level Estimated
Tue 06:28:00 PM 31.1979 121.3363 350° North  Level Estimated
Tue 06:29:00 PM 31.1979 121.3363 350° North  Level Estimated
Tue 06:30:00 PM 31.1979 121.3363 350° North  Level Estimated
Tue 06:31:00 PM 31.1979 121.3363 350° North  Level Estimated
Tue 06:32:00 PM 31.1979 121.3363 350° North  Level Estimated
Tue 06:33:00 PM 31.1979 121.3363 350° North  Level Estimated
Tue 06:34:00 PM 31.1979 121.3363 350° North  Level Estimated
Tue 06:35:00 PM 31.1979 121.3363 350° North  Level Estimated
Tue 06:36:00 PM 31.1979 121.3363 350° North  Level Estimated
Tue 06:37:00 PM 31.1979 121.3363 350° North  Level Estimated
Tue 06:38:00 PM 31.1979 121.3363 350° North  Level Estimated
Tue 06:39:00 PM 31.1979 121.3363 350° North  Level Estimated
Tue 06:40:00 PM 31.1979 121.3363 350° North  Level Estimated
Tue 06:41:00 PM 31.1979 121.3363 350° North  Level Estimated
Tue 06:42:00 PM 31.1979 121.3363 350° North  Level Estimated
Tue 06:43:00 PM 31.1979 121.3363 350° North  Level Estimated
Tue 06:44:00 PM 31.1979 121.3363 350° North  Level Estimated
Tue 06:45:00 PM 31.1979 121.3363 350° North  Level Estimated
Tue 06:46:00 PM 31.1979 121.3363 350° North  Level Estimated
Tue 06:47:00 PM 31.1979 121.3363 350° North  Level Estimated
Tue 06:48:00 PM 31.1979 121.3363 350° North  Level Estimated
Tue 06:49:00 PM 31.1979 121.3363 350° North  Level Estimated
Tue 06:50:00 PM 31.1979 121.3363 350° North  Level Estimated
Tue 06:51:00 PM 31.1979 121.3363 350° North  Level Estimated
Tue 06:52:00 PM 31.1979 121.3363 350° North  Level Estimated
Tue 06:53:00 PM 31.1979 121.3363 350° North  Level Estimated
Tue 06:54:00 PM 31.1979 121.3363 350° North  Level Estimated
Tue 06:55:00 PM 31.1979 121.3363 350° North  Level Estimated
Tue 06:56:00 PM 31.1979 121.3363 350° North  Level Estimated
Tue 06:57:00 PM 31.1979 121.3363 350° North  Level Estimated
Tue 06:58:00 PM 31.1979 121.3363 350° North  Level Estimated
Tue 06:59:00 PM 31.1979 121.3363 350° North  Level Estimated
Tue 07:00:00 PM 31.1979 121.3363 350° North  Level Estimated
Tue 07:01:00 PM 31.1979 121.3363 350° North  Level Estimated
Tue 07:02:00 PM 31.1979 121.3363 350° North  Level Estimated
Tue 07:03:00 PM 31.1979 121.3363 350° North  Level Estimated
Tue 07:04:00 PM 31.1979 121.3363 350° North  Level Estimated
Tue 07:05:00 PM 31.1979 121.3363 350° North  Level Estimated
Tue 07:06:00 PM 31.1979 121.3363 350° North  Level Estimated
Tue 07:07:00 PM 31.1979 121.3363 350° North  Level Estimated
Tue 07:08:00 PM 31.1979 121.3363 350° North  Level Estimated
Tue 07:09:00 PM 31.1979 121.3363 350° North  Level Estimated
Tue 07:10:00 PM 31.1979 121.3363 350° North  Level Estimated
Tue 07:11:00 PM 31.1979 121.3363 350° North  Level Estimated
Tue 07:12:00 PM 31.1979 121.3363 350° North  Level Estimated
Tue 07:13:00 PM 31.1979 121.3363 350° North  Level Estimated
Tue 07:14:00 PM 31.1979 121.3363 350° North  Level Estimated
Tue 07:15:00 PM 31.1979 121.3363 350° North  Level Estimated
Tue 07:16:00 PM 31.1979 121.3363 350° North  Level Estimated
Tue 07:17:00 PM 31.1979 121.3363 350° North  Level Estimated
Tue 07:18:00 PM 31.1979 121.3363 350° North  Level Estimated
Tue 07:19:00 PM 31.1979 121.3363 350° North  Level Estimated
Tue 07:20:00 PM 31.1979 121.3363 350° North  Level Estimated
Tue 07:21:00 PM 31.1979 121.3363 350° North  Level Estimated
Tue 07:22:00 PM 31.1979 121.3363 350° North  Level Estimated
Tue 07:23:00 PM 31.1979 121.3363 350° North  Level Estimated
Tue 07:24:00 PM 31.1979 121.3363 350° North  Level Estimated
Tue 07:25:00 PM 31.1979 121.3363 350° North  Level Estimated
Tue 07:26:00 PM 31.1979 121.3363 350° North  Level Estimated
Tue 07:27:00 PM 31.1979 121.3363 350° North  Level Estimated
Tue 07:28:00 PM 31.1979 121.3363 350° North  Level Estimated
Tue 07:29:00 PM 31.1979 121.3363 350° North  Level Estimated
Tue 07:30:00 PM 31.1979 121.3363 350° North  Level Estimated
Tue 07:31:00 PM 31.1979 121.3363 350° North  Level Estimated
Tue 07:32:00 PM 31.1979 121.3363 350° North  Level Estimated
Tue 07:33:00 PM 31.1979 121.3363 350° North  Level Estimated
Tue 07:34:00 PM 31.1979 121.3363 350° North  Level Estimated
Tue 07:35:00 PM 31.1979 121.3363 350° North  Level Estimated
Tue 07:36:00 PM 31.1979 121.3363 350° North  Level Estimated
Tue 07:37:00 PM 31.1979 121.3363 350° North  Level Estimated
Tue 07:38:00 PM 31.1979 121.3363 350° North  Level Estimated
Tue 07:39:00 PM 31.1979 121.3363 350° North  Level Estimated
Tue 07:40:00 PM 31.1979 121.3363 350° North  Level Estimated
Tue 07:41:00 PM 31.1979 121.3363 350° North  Level Estimated
Tue 07:42:00 PM 31.1979 121.3363 350° North  Level Estimated
Tue 07:43:00 PM 31.1979 121.3363 350° North  Level Estimated
Tue 07:44:00 PM 31.1979 121.3363 350° North  Level Estimated
Tue 07:45:00 PM 31.1979 121.3363 350° North  Level Estimated
Tue 07:46:00 PM 31.1979 121.3363 350° North  Level Estimated
Tue 07:47:00 PM 31.1979 121.3363 350° North  Level Estimated
Tue 07:48:00 PM 31.1979 121.3363 350° North  Level Estimated
Tue 07:49:00 PM 31.1979 121.3363 350° North  Level Estimated
Tue 07:50:00 PM 31.1979 121.3363 350° North  Level Estimated
Tue 07:51:00 PM 31.1979 121.3363 350° North  Level Estimated
Tue 07:52:00 PM 31.1979 121.3363 350° North  Level Estimated
Tue 07:53:00 PM 31.1979 121.3363 350° North  Level Estimated
Tue 07:54:00 PM 31.1979 121.3363 350° North  Level Estimated
Tue 07:55:00 PM 31.1979 121.3363 350° North  Level Estimated
Tue 07:56:00 PM 31.1979 121.3363 350° North  Level Estimated
Tue 07:57:00 PM 31.1979 121.3363 350° North  Level Estimated
Tue 07:58:00 PM 31.1979 121.3363 350° North  Level Estimated
Tue 07:59:00 PM 31.1979 121.3363 350° North  Level Estimated
Tue 08:00:00 PM 31.1979 121.3363 350° North  Level Estimated
Tue 08:01:00 PM 31.1979 121.3363 350° North  Level Estimated
Tue 08:02:00 PM 31.1979 121.3363 350° North  Level Estimated
Tue 08:03:00 PM 31.1979 121.3363 350° North  Level Estimated
Tue 08:04:00 PM 31.1979 121.3363 350° North  Level Estimated
Tue 08:05:00 PM 31.1979 121.3363 350° North  Level Estimated
Tue 08:06:00 PM 31.1979 121.3363 350° North  Level Estimated
Tue 08:07:00 PM 31.1979 121.3363 350° North  Level Estimated
Tue 08:08:00 PM 31.1979 121.3363 350° North  Level Estimated
Tue 08:09:00 PM 31.1979 121.3363 350° North  Level Estimated
Tue 08:10:00 PM 31.1979 121.3363 350° North  Level Estimated
Tue 08:11:00 PM 31.1979 121.3363 350° North  Level Estimated
Tue 08:12:00 PM 31.1979 121.3363 350° North  Level Estimated
Tue 08:13:00 PM 31.1979 121.3363 350° North  Level Estimated
Tue 08:14:00 PM 31.1979 121.3363 350° North  Level Estimated
Tue 08:15:00 PM 31.1979 121.3363 350° North  Level Estimated
Tue 08:16:00 PM 31.1979 121.3363 350° North  Level Estimated
Tue 08:17:00 PM 31.1979 121.3363 350° North  Level Estimated
Tue 08:18:00 PM 31.1979 121.3363 350° North  Level Estimated
Tue 08:19:00 PM 31.1979 121.3363 350° North  Level Estimated
Tue 08:20:00 PM 31.1979 121.3363 350° North  Level Estimated
Tue 08:21:00 PM 31.1979 121.3363 350° North  Level Estimated
Tue 08:22:00 PM 31.1979 121.3363 350° North  Level Estimated
Tue 08:23:00 PM 31.1979 121.3363 350° North  Level Estimated
Tue 08:24:00 PM 31.1979 121.3363 350° North  Level Estimated
Tue 08:25:00 PM 31.1979 121.3363 350° North  Level Estimated
Tue 08:26:00 PM 31.1979 121.3363 350° North  Level Estimated
Tue 08:27:00 PM 31.1979 121.3363 350° North  Level Estimated
Tue 08:28:00 PM 31.1979 121.3363 350° North  Level Estimated
Tue 08:29:00 PM 31.1979 121.3363 350° North  Level Estimated
Tue 08:30:00 PM 31.1979 121.3363 350° North  Level Estimated
Tue 08:31:00 PM 31.1979 121.3363 350° North  Level Estimated
Tue 08:32:00 PM 31.1979 121.3363 350° North  Level Estimated
Tue 08:33:00 PM 31.1979 121.3363 350° North  Level Estimated
Tue 08:34:00 PM 31.1979 121.3363 350° North  Level Estimated
Tue 08:35:00 PM 31.1979 121.3363 350° North  Level Estimated
Tue 08:36:00 PM 31.1979 121.3363 350° North  Level Estimated
Tue 08:37:00 PM 31.1979 121.3363 350° North  Level Estimated
Tue 08:38:00 PM 31.1979 121.3363 350° North  Level Estimated
Tue 08:39:00 PM 31.1979 121.3363 350° North  Level Estimated
Tue 08:40:00 PM 31.1979 121.3363 350° North  Level Estimated
Tue 08:41:00 PM 31.1979 121.3363 350° North  Level Estimated
Tue 08:42:00 PM 31.1979 121.3363 350° North  Level Estimated
Tue 08:43:00 PM 31.1979 121.3363 350° North  Level Estimated
Tue 08:44:00 PM 31.1979 121.3363 350° North  Level Estimated
Tue 08:45:00 PM 31.1979 121.3363 350° North  Level Estimated
Tue 08:46:00 PM 31.1979 121.3363 350° North  Level Estimated
Tue 08:47:00 PM 31.1979 121.3363 350° North  Level Estimated
Tue 08:48:00 PM 31.1979 121.3363 350° North  Level Estimated
Tue 08:49:00 PM 31.1979 121.3363 350° North  Level Estimated
Tue 08:50:00 PM 31.1979 121.3363 350° North  Level Estimated
Tue 08:51:00 PM 31.1979 121.3363 350° North  Level Estimated
Tue 08:52:00 PM 31.1979 121.3363 350° North  Level Estimated
Tue 08:53:00 PM 31.1979 121.3363 350° North  Level Estimated
Tue 08:54:00 PM 31.1979 121.3363 350° North  Level Estimated
Tue 08:55:00 PM 31.1979 121.3363 350° North  Level Estimated
Tue 08:56:00 PM 31.1979 121.3363 350° North  Level Estimated
Tue 08:57:00 PM 31.1979 121.3363 350° North  Level Estimated
Tue 08:58:00 PM 31.1979 121.3363 350° North  Level Estimated
Tue 08:59:00 PM 31.1979 121.3363 350° North  Level Estimated
Tue 09:00:00 PM 31.1979 121.3363 350° North  Level Estimated
Tue 09:01:00 PM 31.1979 121.3363 350° North  Level Estimated
Tue 09:02:00 PM 31.1979 121.3363 350° North  Level Estimated
Tue 09:03:00 PM 31.1979 121.3363 350° North  Level Estimated
Tue 09:04:00 PM 31.1979 121.3363 350° North  Level Estimated
Tue 09:05:00 PM 31.1979 121.3363 350° North  Level Estimated
Tue 09:06:00 PM 31.1979 121.3363 350° North  Level Estimated
Tue 09:07:00 PM 31.1979 121.3363 350° North  Level Estimated
Tue 09:08:00 PM 31.1979 121.3363 350° North  Level Estimated
Tue 09:09:00 PM 31.1979 121.3363 350° North  Level Estimated
Tue 09:10:00 PM 31.1979 121.3363 350° North  Level Estimated
Tue 09:11:00 PM 31.1979 121.3363 350° North  Level Estimated
Tue 09:12:00 PM 31.1979 121.3363 350° North  Level Estimated
Tue 09:13:00 PM 31.1979 121.3363 350° North  Level Estimated
Tue 09:14:00 PM 31.1979 121.3363 350° North  Level Estimated
Tue 09:15:00 PM 31.1979 121.3363 350° North  Level Estimated
Tue 09:16:00 PM 31.1979 121.3363 350° North  Level Estimated
Tue 09:17:00 PM 31.1979 121.3363 350° North  Level Estimated
Tue 09:18:00 PM 31.1979 121.3363 350° North  Level Estimated
Tue 09:19:00 PM 31.1979 121.3363 350° North  Level Estimated
Tue 09:20:00 PM 31.1979 121.3363 350° North  Level Estimated
Tue 09:21:00 PM 31.1979 121.3363 350° North  Level Estimated
Tue 09:22:00 PM 31.1979 121.3363 350° North  Level Estimated
Tue 09:23:00 PM 31.1979 121.3363 350° North  Level Estimated
Tue 09:24:00 PM 31.1979 121.3363 350° North  Level Estimated
Tue 09:25:00 PM 31.1979 121.3363 350° North  Level Estimated
Tue 09:26:00 PM 31.1979 121.3363 350° North  Level Estimated
Tue 09:27:00 PM 31.1979 121.3363 350° North  Level Estimated
Tue 09:28:00 PM 31.1979 121.3363 350° North  Level Estimated
Tue 09:29:00 PM 31.1979 121.3363 350° North  Level Estimated
Tue 09:30:00 PM 31.1979 121.3363 350° North  Level Estimated
Tue 09:31:00 PM 31.1979 121.3363 350° North  Level Estimated
Tue 09:32:00 PM 31.1979 121.3363 350° North  Level Estimated
Tue 09:33:00 PM 31.1979 121.3363 350° North  Level Estimated
Tue 09:34:00 PM 31.1979 121.3363 350° North  Level Estimated
Tue 09:35:00 PM 31.1979 121.3363 350° North  Level Estimated
Tue 09:36:00 PM 31.1979 121.3363 350° North  Level Estimated
Tue 09:37:00 PM 31.1979 121.3363 350° North  Level Estimated
Tue 09:38:00 PM 31.1979 121.3363 350° North  Level Estimated
Tue 09:39:00 PM 31.1979 121.3363 350° North  Level Estimated
Tue 09:40:00 PM 31.1979 121.3363 350° North  Level Estimated
Tue 09:41:00 PM 31.1979 121.3363 350° North  Level Estimated
Tue 09:42:00 PM 31.1979 121.3363 350° North  Level Estimated
Tue 09:43:00 PM 31.1979 121.3363 350° North  Level Estimated
Tue 09:44:00 PM 31.1979 121.3363 350° North  Level Estimated
Tue 09:45:00 PM 31.1979 121.3363 350° North  Level Estimated
Tue 09:46:00 PM 31.1979 121.3363 350° North  Level Estimated
Tue 09:47:00 PM 31.1979 121.3363 350° North  Level Estimated
Tue 09:48:00 PM 31.1979 121.3363 350° North  Level Estimated
Tue 09:49:00 PM 31.1979 121.3363 350° North  Level Estimated
Tue 09:50:00 PM 31.1979 121.3363 350° North  Level Estimated
Tue 09:51:00 PM 31.1979 121.3363 350° North  Level Estimated
Tue 09:52:00 PM 31.1979 121.3363 350° North  Level Estimated
Tue 09:53:00 PM 31.1979 121.3363 350° North  Level Estimated
Tue 09:54:00 PM 31.1979 121.3363 350° North  Level Estimated
Tue 09:55:00 PM 31.1979 121.3363 350° North  Level Estimated
Tue 09:56:00 PM 31.1979 121.3363 350° North  Level Estimated
Tue 09:57:00 PM 31.1979 121.3363 350° North  Level Estimated
Tue 09:58:00 PM 31.1979 121.3363 350° North  Level Estimated
Tue 09:59:00 PM 31.1979 121.3363 350° North  Level Estimated
Tue 10:00:00 PM 31.1979 121.3363 350° North  Level Estimated
Tue 10:01:00 PM 31.1979 121.3363 350° North  Level Estimated
Tue 10:02:00 PM 31.1979 121.3363 350° North  Level Estimated
Tue 10:03:00 PM 31.1979 121.3363 350° North  Level Estimated
Tue 10:04:00 PM 31.1979 121.3363 350° North  Level Estimated
Tue 10:05:00 PM 31.1979 121.3363 350° North  Level Estimated
Tue 10:06:00 PM 31.1979 121.3363 350° North  Level Estimated
Tue 10:07:00 PM 31.1979 121.3363 350° North  Level Estimated
Tue 10:08:00 PM 31.1979 121.3363 350° North  Level Estimated
Tue 10:09:00 PM 31.1979 121.3363 350° North  Level Estimated
Tue 10:10:00 PM 31.1979 121.3363 350° North  Level Estimated
Tue 10:11:00 PM 31.1979 121.3363 350° North  Level Estimated
Tue 10:12:00 PM 31.1979 121.3363 350° North  Level Estimated
Tue 10:13:00 PM 31.1979 121.3363 350° North  Level Estimated
Tue 10:14:00 PM 31.1979 121.3363 350° North  Level Estimated
Tue 10:15:00 PM 31.1979 121.3363 350° North  Level Estimated
Tue 10:16:00 PM 31.1979 121.3363 350° North  Level Estimated
Tue 10:17:00 PM 31.1979 121.3363 350° North  Level Estimated
Tue 10:18:00 PM 31.1979 121.3363 350° North  Level Estimated
Tue 10:19:00 PM 31.1979 121.3363 350° North  Level Estimated
Tue 10:20:00 PM 31.1979 121.3363 350° North  Level Estimated
Tue 10:21:00 PM 31.1979 121.3363 350° North  Level Estimated
Tue 10:22:00 PM 31.1979 121.3363 350° North  Level Estimated
Tue 10:23:00 PM 31.1979 121.3363 350° North  Level Estimated
Tue 10:24:00 PM 31.1979 121.3363 350° North  Level Estimated
Tue 10:25:00 PM 31.1979 121.3363 350° North  Level Estimated
Tue 10:26:00 PM 31.1979 121.3363 350° North  Level Estimated
Tue 10:27:00 PM 31.1979 121.3363 350° North  Level Estimated
Tue 10:28:00 PM 31.1979 121.3363 350° North  Level Estimated
Tue 10:29:00 PM 31.1979 121.3363 350° North  Level Estimated
Tue 10:30:00 PM 31.1979 121.3363 350° North  Level Estimated
Tue 10:30:48 PM 31.3392 121.1510 350° North 6,400  Level FlightAware ADS-B (ZSSS / SHA)
Tue 10:31:00 PM 31.1979 121.3363 350° North  Level Estimated
Tue 10:31:07 PM 31.3306 121.1792 110° East 6,400  Level FlightAware ADS-B (ZSSS / SHA)
Tue 10:31:27 PM 31.3188 121.2067 117° Southeast 6,400  Level FlightAware ADS-B (ZSSS / SHA)
Tue 10:31:47 PM 31.2959 121.2218 151° Southeast 6,400  Level FlightAware ADS-B (ZSSS / SHA)
Tue 10:32:07 PM 31.2696 121.2233 177° South 244 281 6,400 -171 Level FlightAware ADS-B (ZSSS / SHA)
Tue 10:32:22 PM 31.2503 121.2237 179° South 289 333 6,300 -581 Descending FlightAware ADS-B (ZSSS / SHA)
Tue 10:32:38 PM 31.2309 121.2242 179° South 288 331 6,100 -600 Descending FlightAware ADS-B (ZSSS / SHA)
Tue 10:32:52 PM 31.2122 121.2250 178° South 282 325 6,000 -621 Descending FlightAware ADS-B (ZSSS / SHA)
Tue 10:33:07 PM 31.1941 121.2257 178° South 281 323 5,800 -686 Descending FlightAware ADS-B (ZSSS / SHA)
Tue 10:33:27 PM 31.1722 121.2271 177° South 290 334 5,600 -686 Descending FlightAware ADS-B (ZSSS / SHA)
Tue 10:33:42 PM 31.1569 121.2281 177° South 265 305 5,400 -828 Descending FlightAware ADS-B (ZSSS / SHA)
Tue 10:33:56 PM 31.1421 121.2290 177° South 294 338 5,200 -1,000 Descending FlightAware ADS-B (ZSSS / SHA)
Tue 10:34:12 PM 31.1243 121.2298 178° South 260 299 4,900 -1,355 Descending FlightAware ADS-B (ZSSS / SHA)
Tue 10:34:27 PM 31.1098 121.2305 178° South 271 312 4,500 -1,200 Descending FlightAware ADS-B (ZSSS / SHA)
Tue 10:34:42 PM 31.0925 121.2314 178° South 242 278 4,300 -1,200 Descending FlightAware ADS-B (ZSSS / SHA)
Tue 10:34:57 PM 31.0771 121.2321 178° South 218 251 3,900 -1,448 Descending FlightAware ADS-B (ZSSS / SHA)
Tue 10:35:11 PM 31.0616 121.2329 177° South 227 261 3,600 -1,000 Descending FlightAware ADS-B (ZSSS / SHA)
Tue 10:35:27 PM 31.0489 121.2336 177° South 171 197 3,400 -563 Descending FlightAware ADS-B (ZSSS / SHA)
Tue 10:35:43 PM 31.0362 121.2345 177° South 263 303 3,300 -621 Descending FlightAware ADS-B (ZSSS / SHA)
Tue 10:35:56 PM 31.0189 121.2369 173° South 213 245 3,100 -1,071 Descending FlightAware ADS-B (ZSSS / SHA)
Tue 10:36:11 PM 31.0101 121.2434 147° Southeast 226 260 2,800 -1,161 Descending FlightAware ADS-B (ZSSS / SHA)
Tue 10:36:27 PM 31.0043 121.2607 112° Southeast 200 230 2,500 -1,125 Descending FlightAware ADS-B (ZSSS / SHA)
Tue 10:38:00 PM 31.0149 121.2649 18° North  Level Estimated
Tue 10:39:00 PM 31.0218 121.2675 18° North  Level Estimated
Tue 10:40:00 PM 31.0287 121.2702 18° North  Level Estimated
Tue 10:41:00 PM 31.0356 121.2729 18° North  Level Estimated
Tue 10:42:00 PM 31.0424 121.2756 18° North  Level Estimated
Tue 10:43:00 PM 31.0493 121.2783 18° North  Level Estimated
Tue 10:44:00 PM 31.0562 121.2810 18° North  Level Estimated
Tue 10:45:00 PM 31.0631 121.2836 18° North  Level Estimated
Tue 10:46:00 PM 31.0700 121.2863 18° North  Level Estimated

Login

Don't have an account? Register now (free) for customized features, flight alerts, and more!